<?xml version="1.0" encoding="UTF-8" standalone="no" ?>
<gpx xmlns="http://www.topografix.com/GPX/1/1" xmlns:xsi="http://www.w3.org/2001/XMLSchema-instance" xsi:schemaLocation="http://www.topografix.com/GPX/1/1 http://www.topografix.com/GPX/1/1/gpx.xsd" version="1.1" creator="VisuGPX - https://www.visugpx.com">
  <metadata>
    <name>CORSE - capu rossu (capo rosso) - PEDESTRE - Piana (2A) - Un aller/retour jusqu'à la tour Turghiu.</name>
    <desc><![CDATA[Rando littorale en altitude]]></desc>
  </metadata>
  <trk>
    <name><![CDATA[ACTIVE LOG 002]]></name>
    <trkseg>
      <trkpt lat="42.23539" lon="8.58375">
        <ele>310.643066</ele>
        <time>2014-06-26T07:12:31Z</time>
      </trkpt>
      <trkpt lat="42.23539" lon="8.58375">
        <ele>310.643066</ele>
        <time>2014-06-26T07:12:32Z</time>
      </trkpt>
      <trkpt lat="42.23539" lon="8.58375">
        <ele>309.681885</ele>
        <time>2014-06-26T07:12:33Z</time>
      </trkpt>
      <trkpt lat="42.23539" lon="8.58375">
        <ele>308.720459</ele>
        <time>2014-06-26T07:13:03Z</time>
      </trkpt>
      <trkpt lat="42.23543" lon="8.58373">
        <ele>309.681885</ele>
        <time>2014-06-26T07:13:25Z</time>
      </trkpt>
      <trkpt lat="42.23544" lon="8.58372">
        <ele>308.720459</ele>
        <time>2014-06-26T07:13:27Z</time>
      </trkpt>
      <trkpt lat="42.23551" lon="8.58369">
        <ele>309.201172</ele>
        <time>2014-06-26T07:13:35Z</time>
      </trkpt>
      <trkpt lat="42.23566" lon="8.58369">
        <ele>310.162476</ele>
        <time>2014-06-26T07:13:50Z</time>
      </trkpt>
      <trkpt lat="42.23576" lon="8.58368">
        <ele>312.565796</ele>
        <time>2014-06-26T07:14:01Z</time>
      </trkpt>
      <trkpt lat="42.23587" lon="8.58364">
        <ele>315.449829</ele>
        <time>2014-06-26T07:14:12Z</time>
      </trkpt>
      <trkpt lat="42.2359" lon="8.58361">
        <ele>317.372437</ele>
        <time>2014-06-26T07:14:24Z</time>
      </trkpt>
      <trkpt lat="42.23586" lon="8.58352">
        <ele>316.891724</ele>
        <time>2014-06-26T07:14:41Z</time>
      </trkpt>
      <trkpt lat="42.23585" lon="8.58349">
        <ele>315.93042</ele>
        <time>2014-06-26T07:15:01Z</time>
      </trkpt>
      <trkpt lat="42.2358" lon="8.58321">
        <ele>315.449829</ele>
        <time>2014-06-26T07:15:22Z</time>
      </trkpt>
      <trkpt lat="42.23577" lon="8.58295">
        <ele>313.527222</ele>
        <time>2014-06-26T07:15:40Z</time>
      </trkpt>
      <trkpt lat="42.23577" lon="8.58283">
        <ele>311.604492</ele>
        <time>2014-06-26T07:15:57Z</time>
      </trkpt>
      <trkpt lat="42.23576" lon="8.58266">
        <ele>309.681885</ele>
        <time>2014-06-26T07:16:10Z</time>
      </trkpt>
      <trkpt lat="42.23575" lon="8.58255">
        <ele>309.681885</ele>
        <time>2014-06-26T07:16:25Z</time>
      </trkpt>
      <trkpt lat="42.23576" lon="8.5824">
        <ele>307.759277</ele>
        <time>2014-06-26T07:16:42Z</time>
      </trkpt>
      <trkpt lat="42.23577" lon="8.58229">
        <ele>304.875244</ele>
        <time>2014-06-26T07:16:58Z</time>
      </trkpt>
      <trkpt lat="42.23576" lon="8.58217">
        <ele>301.991333</ele>
        <time>2014-06-26T07:17:13Z</time>
      </trkpt>
      <trkpt lat="42.23578" lon="8.58199">
        <ele>300.068726</ele>
        <time>2014-06-26T07:17:30Z</time>
      </trkpt>
      <trkpt lat="42.23581" lon="8.58177">
        <ele>297.665405</ele>
        <time>2014-06-26T07:17:48Z</time>
      </trkpt>
      <trkpt lat="42.23582" lon="8.58157">
        <ele>294.781372</ele>
        <time>2014-06-26T07:18:05Z</time>
      </trkpt>
      <trkpt lat="42.23582" lon="8.58144">
        <ele>292.858765</ele>
        <time>2014-06-26T07:18:19Z</time>
      </trkpt>
      <trkpt lat="42.23582" lon="8.58129">
        <ele>290.936157</ele>
        <time>2014-06-26T07:18:35Z</time>
      </trkpt>
      <trkpt lat="42.23583" lon="8.58113">
        <ele>288.532959</ele>
        <time>2014-06-26T07:18:51Z</time>
      </trkpt>
      <trkpt lat="42.23585" lon="8.58084">
        <ele>285.168213</ele>
        <time>2014-06-26T07:19:13Z</time>
      </trkpt>
      <trkpt lat="42.23585" lon="8.58083">
        <ele>285.168213</ele>
        <time>2014-06-26T07:19:14Z</time>
      </trkpt>
      <trkpt lat="42.23586" lon="8.58071">
        <ele>284.687622</ele>
        <time>2014-06-26T07:19:24Z</time>
      </trkpt>
      <trkpt lat="42.23593" lon="8.58042">
        <ele>283.726196</ele>
        <time>2014-06-26T07:19:45Z</time>
      </trkpt>
      <trkpt lat="42.23596" lon="8.5803">
        <ele>283.245605</ele>
        <time>2014-06-26T07:20:01Z</time>
      </trkpt>
      <trkpt lat="42.23596" lon="8.58027">
        <ele>283.245605</ele>
        <time>2014-06-26T07:20:13Z</time>
      </trkpt>
      <trkpt lat="42.23597" lon="8.58023">
        <ele>282.284302</ele>
        <time>2014-06-26T07:20:16Z</time>
      </trkpt>
      <trkpt lat="42.23599" lon="8.58003">
        <ele>282.284302</ele>
        <time>2014-06-26T07:20:34Z</time>
      </trkpt>
      <trkpt lat="42.23602" lon="8.57983">
        <ele>279.400269</ele>
        <time>2014-06-26T07:20:50Z</time>
      </trkpt>
      <trkpt lat="42.23605" lon="8.57955">
        <ele>277.958252</ele>
        <time>2014-06-26T07:21:09Z</time>
      </trkpt>
      <trkpt lat="42.23601" lon="8.57929">
        <ele>275.555054</ele>
        <time>2014-06-26T07:21:29Z</time>
      </trkpt>
      <trkpt lat="42.23601" lon="8.57928">
        <ele>275.555054</ele>
        <time>2014-06-26T07:21:30Z</time>
      </trkpt>
      <trkpt lat="42.23594" lon="8.5791">
        <ele>274.59375</ele>
        <time>2014-06-26T07:21:44Z</time>
      </trkpt>
      <trkpt lat="42.2358" lon="8.5789">
        <ele>272.19043</ele>
        <time>2014-06-26T07:22:06Z</time>
      </trkpt>
      <trkpt lat="42.23575" lon="8.57857">
        <ele>272.19043</ele>
        <time>2014-06-26T07:22:28Z</time>
      </trkpt>
      <trkpt lat="42.23575" lon="8.57845">
        <ele>271.709717</ele>
        <time>2014-06-26T07:22:45Z</time>
      </trkpt>
      <trkpt lat="42.23576" lon="8.57839">
        <ele>271.709717</ele>
        <time>2014-06-26T07:23:01Z</time>
      </trkpt>
      <trkpt lat="42.2358" lon="8.57823">
        <ele>270.748413</ele>
        <time>2014-06-26T07:23:19Z</time>
      </trkpt>
      <trkpt lat="42.23592" lon="8.57801">
        <ele>271.709717</ele>
        <time>2014-06-26T07:23:38Z</time>
      </trkpt>
      <trkpt lat="42.23598" lon="8.57792">
        <ele>270.748413</ele>
        <time>2014-06-26T07:23:52Z</time>
      </trkpt>
      <trkpt lat="42.23604" lon="8.57778">
        <ele>268.345093</ele>
        <time>2014-06-26T07:24:09Z</time>
      </trkpt>
      <trkpt lat="42.23609" lon="8.57763">
        <ele>265.941895</ele>
        <time>2014-06-26T07:24:24Z</time>
      </trkpt>
      <trkpt lat="42.23619" lon="8.57747">
        <ele>263.538574</ele>
        <time>2014-06-26T07:24:41Z</time>
      </trkpt>
      <trkpt lat="42.23623" lon="8.57735">
        <ele>262.096558</ele>
        <time>2014-06-26T07:24:55Z</time>
      </trkpt>
      <trkpt lat="42.23627" lon="8.57725">
        <ele>259.212646</ele>
        <time>2014-06-26T07:25:07Z</time>
      </trkpt>
      <trkpt lat="42.23633" lon="8.57711">
        <ele>257.290039</ele>
        <time>2014-06-26T07:25:24Z</time>
      </trkpt>
      <trkpt lat="42.23633" lon="8.57709">
        <ele>256.809326</ele>
        <time>2014-06-26T07:25:26Z</time>
      </trkpt>
      <trkpt lat="42.23642" lon="8.57681">
        <ele>253.925415</ele>
        <time>2014-06-26T07:25:48Z</time>
      </trkpt>
      <trkpt lat="42.23647" lon="8.57663">
        <ele>251.522095</ele>
        <time>2014-06-26T07:26:02Z</time>
      </trkpt>
      <trkpt lat="42.2365" lon="8.57643">
        <ele>250.560791</ele>
        <time>2014-06-26T07:26:16Z</time>
      </trkpt>
      <trkpt lat="42.23654" lon="8.57624">
        <ele>247.676758</ele>
        <time>2014-06-26T07:26:33Z</time>
      </trkpt>
      <trkpt lat="42.23656" lon="8.57611">
        <ele>247.196045</ele>
        <time>2014-06-26T07:26:46Z</time>
      </trkpt>
      <trkpt lat="42.23657" lon="8.57604">
        <ele>247.196045</ele>
        <time>2014-06-26T07:26:51Z</time>
      </trkpt>
      <trkpt lat="42.23654" lon="8.57574">
        <ele>245.273438</ele>
        <time>2014-06-26T07:27:11Z</time>
      </trkpt>
      <trkpt lat="42.23648" lon="8.57547">
        <ele>244.792847</ele>
        <time>2014-06-26T07:27:32Z</time>
      </trkpt>
      <trkpt lat="42.23648" lon="8.57544">
        <ele>244.792847</ele>
        <time>2014-06-26T07:27:39Z</time>
      </trkpt>
      <trkpt lat="42.23646" lon="8.57519">
        <ele>241.428223</ele>
        <time>2014-06-26T07:27:56Z</time>
      </trkpt>
      <trkpt lat="42.23639" lon="8.5749">
        <ele>239.505493</ele>
        <time>2014-06-26T07:28:16Z</time>
      </trkpt>
      <trkpt lat="42.23635" lon="8.57477">
        <ele>238.063599</ele>
        <time>2014-06-26T07:28:27Z</time>
      </trkpt>
      <trkpt lat="42.23629" lon="8.57459">
        <ele>236.621704</ele>
        <time>2014-06-26T07:28:45Z</time>
      </trkpt>
      <trkpt lat="42.23628" lon="8.57438">
        <ele>236.140991</ele>
        <time>2014-06-26T07:28:59Z</time>
      </trkpt>
      <trkpt lat="42.2363" lon="8.57409">
        <ele>234.218384</ele>
        <time>2014-06-26T07:29:18Z</time>
      </trkpt>
      <trkpt lat="42.23631" lon="8.57382">
        <ele>233.25708</ele>
        <time>2014-06-26T07:29:35Z</time>
      </trkpt>
      <trkpt lat="42.23635" lon="8.57365">
        <ele>232.295776</ele>
        <time>2014-06-26T07:29:50Z</time>
      </trkpt>
      <trkpt lat="42.23634" lon="8.57355">
        <ele>230.373047</ele>
        <time>2014-06-26T07:30:00Z</time>
      </trkpt>
      <trkpt lat="42.23633" lon="8.57338">
        <ele>227.489136</ele>
        <time>2014-06-26T07:30:17Z</time>
      </trkpt>
      <trkpt lat="42.23632" lon="8.57324">
        <ele>225.566528</ele>
        <time>2014-06-26T07:30:31Z</time>
      </trkpt>
      <trkpt lat="42.23632" lon="8.57322">
        <ele>225.085938</ele>
        <time>2014-06-26T07:30:33Z</time>
      </trkpt>
      <trkpt lat="42.23643" lon="8.57299">
        <ele>224.124512</ele>
        <time>2014-06-26T07:30:52Z</time>
      </trkpt>
      <trkpt lat="42.23647" lon="8.57288">
        <ele>222.201782</ele>
        <time>2014-06-26T07:31:02Z</time>
      </trkpt>
      <trkpt lat="42.23655" lon="8.57264">
        <ele>218.83728</ele>
        <time>2014-06-26T07:31:20Z</time>
      </trkpt>
      <trkpt lat="42.23664" lon="8.57234">
        <ele>218.83728</ele>
        <time>2014-06-26T07:31:40Z</time>
      </trkpt>
      <trkpt lat="42.2367" lon="8.57198">
        <ele>217.875977</ele>
        <time>2014-06-26T07:32:02Z</time>
      </trkpt>
      <trkpt lat="42.23672" lon="8.5718">
        <ele>215.472656</ele>
        <time>2014-06-26T07:32:18Z</time>
      </trkpt>
      <trkpt lat="42.23673" lon="8.57174">
        <ele>213.069336</ele>
        <time>2014-06-26T07:32:24Z</time>
      </trkpt>
      <trkpt lat="42.23678" lon="8.57143">
        <ele>212.588623</ele>
        <time>2014-06-26T07:32:43Z</time>
      </trkpt>
      <trkpt lat="42.2368" lon="8.57125">
        <ele>211.146729</ele>
        <time>2014-06-26T07:32:58Z</time>
      </trkpt>
      <trkpt lat="42.23682" lon="8.57107">
        <ele>208.262817</ele>
        <time>2014-06-26T07:33:14Z</time>
      </trkpt>
      <trkpt lat="42.23688" lon="8.57076">
        <ele>207.301392</ele>
        <time>2014-06-26T07:33:34Z</time>
      </trkpt>
      <trkpt lat="42.23699" lon="8.57043">
        <ele>207.301392</ele>
        <time>2014-06-26T07:33:55Z</time>
      </trkpt>
      <trkpt lat="42.23711" lon="8.57005">
        <ele>207.301392</ele>
        <time>2014-06-26T07:34:18Z</time>
      </trkpt>
      <trkpt lat="42.2371" lon="8.56983">
        <ele>206.820679</ele>
        <time>2014-06-26T07:34:33Z</time>
      </trkpt>
      <trkpt lat="42.23699" lon="8.56941">
        <ele>206.340088</ele>
        <time>2014-06-26T07:34:58Z</time>
      </trkpt>
      <trkpt lat="42.23687" lon="8.56913">
        <ele>206.340088</ele>
        <time>2014-06-26T07:35:17Z</time>
      </trkpt>
      <trkpt lat="42.23679" lon="8.56894">
        <ele>205.378784</ele>
        <time>2014-06-26T07:35:31Z</time>
      </trkpt>
      <trkpt lat="42.23662" lon="8.5687">
        <ele>204.898071</ele>
        <time>2014-06-26T07:35:51Z</time>
      </trkpt>
      <trkpt lat="42.23648" lon="8.56849">
        <ele>203.93689</ele>
        <time>2014-06-26T07:36:08Z</time>
      </trkpt>
      <trkpt lat="42.23639" lon="8.56831">
        <ele>202.494873</ele>
        <time>2014-06-26T07:36:23Z</time>
      </trkpt>
      <trkpt lat="42.23637" lon="8.56821">
        <ele>199.130127</ele>
        <time>2014-06-26T07:36:36Z</time>
      </trkpt>
      <trkpt lat="42.23636" lon="8.56813">
        <ele>197.20752</ele>
        <time>2014-06-26T07:36:44Z</time>
      </trkpt>
      <trkpt lat="42.23636" lon="8.56806">
        <ele>195.765625</ele>
        <time>2014-06-26T07:36:51Z</time>
      </trkpt>
      <trkpt lat="42.23639" lon="8.56793">
        <ele>194.32373</ele>
        <time>2014-06-26T07:37:07Z</time>
      </trkpt>
      <trkpt lat="42.2364" lon="8.56784">
        <ele>192.401123</ele>
        <time>2014-06-26T07:37:21Z</time>
      </trkpt>
      <trkpt lat="42.23645" lon="8.56771">
        <ele>189.997681</ele>
        <time>2014-06-26T07:37:35Z</time>
      </trkpt>
      <trkpt lat="42.23648" lon="8.56759">
        <ele>189.036377</ele>
        <time>2014-06-26T07:37:47Z</time>
      </trkpt>
      <trkpt lat="42.23652" lon="8.56747">
        <ele>186.152466</ele>
        <time>2014-06-26T07:38:00Z</time>
      </trkpt>
      <trkpt lat="42.23655" lon="8.5673">
        <ele>183.749023</ele>
        <time>2014-06-26T07:38:16Z</time>
      </trkpt>
      <trkpt lat="42.23657" lon="8.56714">
        <ele>181.826416</ele>
        <time>2014-06-26T07:38:36Z</time>
      </trkpt>
      <trkpt lat="42.23658" lon="8.56701">
        <ele>179.903809</ele>
        <time>2014-06-26T07:38:53Z</time>
      </trkpt>
      <trkpt lat="42.23659" lon="8.56679">
        <ele>177.02002</ele>
        <time>2014-06-26T07:39:11Z</time>
      </trkpt>
      <trkpt lat="42.23658" lon="8.56659">
        <ele>175.09729</ele>
        <time>2014-06-26T07:39:28Z</time>
      </trkpt>
      <trkpt lat="42.23658" lon="8.56657">
        <ele>175.09729</ele>
        <time>2014-06-26T07:39:30Z</time>
      </trkpt>
      <trkpt lat="42.23657" lon="8.56652">
        <ele>175.09729</ele>
        <time>2014-06-26T07:39:34Z</time>
      </trkpt>
      <trkpt lat="42.23657" lon="8.56644">
        <ele>174.135864</ele>
        <time>2014-06-26T07:39:40Z</time>
      </trkpt>
      <trkpt lat="42.23654" lon="8.56638">
        <ele>173.174683</ele>
        <time>2014-06-26T07:39:45Z</time>
      </trkpt>
      <trkpt lat="42.23649" lon="8.56627">
        <ele>171.732666</ele>
        <time>2014-06-26T07:39:57Z</time>
      </trkpt>
      <trkpt lat="42.23644" lon="8.56616">
        <ele>170.771362</ele>
        <time>2014-06-26T07:40:07Z</time>
      </trkpt>
      <trkpt lat="42.23644" lon="8.56609">
        <ele>170.290649</ele>
        <time>2014-06-26T07:40:12Z</time>
      </trkpt>
      <trkpt lat="42.23643" lon="8.56598">
        <ele>168.368042</ele>
        <time>2014-06-26T07:40:28Z</time>
      </trkpt>
      <trkpt lat="42.23638" lon="8.56574">
        <ele>166.926025</ele>
        <time>2014-06-26T07:40:43Z</time>
      </trkpt>
      <trkpt lat="42.23633" lon="8.56557">
        <ele>165.003418</ele>
        <time>2014-06-26T07:40:57Z</time>
      </trkpt>
      <trkpt lat="42.23631" lon="8.56553">
        <ele>165.003418</ele>
        <time>2014-06-26T07:41:01Z</time>
      </trkpt>
      <trkpt lat="42.23628" lon="8.56548">
        <ele>163.561523</ele>
        <time>2014-06-26T07:41:15Z</time>
      </trkpt>
      <trkpt lat="42.23622" lon="8.56545">
        <ele>161.638916</ele>
        <time>2014-06-26T07:41:24Z</time>
      </trkpt>
      <trkpt lat="42.23615" lon="8.56538">
        <ele>159.235474</ele>
        <time>2014-06-26T07:41:38Z</time>
      </trkpt>
      <trkpt lat="42.23608" lon="8.56531">
        <ele>157.793579</ele>
        <time>2014-06-26T07:41:54Z</time>
      </trkpt>
      <trkpt lat="42.23607" lon="8.56525">
        <ele>156.832153</ele>
        <time>2014-06-26T07:42:00Z</time>
      </trkpt>
      <trkpt lat="42.23602" lon="8.56517">
        <ele>153.948364</ele>
        <time>2014-06-26T07:42:10Z</time>
      </trkpt>
      <trkpt lat="42.23601" lon="8.56516">
        <ele>153.948364</ele>
        <time>2014-06-26T07:42:11Z</time>
      </trkpt>
      <trkpt lat="42.236" lon="8.56511">
        <ele>152.506348</ele>
        <time>2014-06-26T07:42:17Z</time>
      </trkpt>
      <trkpt lat="42.23593" lon="8.56501">
        <ele>150.583618</ele>
        <time>2014-06-26T07:42:30Z</time>
      </trkpt>
      <trkpt lat="42.23582" lon="8.56487">
        <ele>148.661011</ele>
        <time>2014-06-26T07:42:47Z</time>
      </trkpt>
      <trkpt lat="42.23573" lon="8.56472">
        <ele>145.7771</ele>
        <time>2014-06-26T07:43:04Z</time>
      </trkpt>
      <trkpt lat="42.23559" lon="8.56456">
        <ele>143.85437</ele>
        <time>2014-06-26T07:43:23Z</time>
      </trkpt>
      <trkpt lat="42.23551" lon="8.56449">
        <ele>142.412476</ele>
        <time>2014-06-26T07:43:39Z</time>
      </trkpt>
      <trkpt lat="42.23551" lon="8.56449">
        <ele>141.931763</ele>
        <time>2014-06-26T07:44:30Z</time>
      </trkpt>
      <trkpt lat="42.23549" lon="8.56445">
        <ele>141.45105</ele>
        <time>2014-06-26T07:44:55Z</time>
      </trkpt>
      <trkpt lat="42.23541" lon="8.56442">
        <ele>139.528442</ele>
        <time>2014-06-26T07:45:22Z</time>
      </trkpt>
      <trkpt lat="42.23534" lon="8.56436">
        <ele>137.125244</ele>
        <time>2014-06-26T07:45:38Z</time>
      </trkpt>
      <trkpt lat="42.23526" lon="8.56423">
        <ele>135.683105</ele>
        <time>2014-06-26T07:45:55Z</time>
      </trkpt>
      <trkpt lat="42.23517" lon="8.56414">
        <ele>132.318604</ele>
        <time>2014-06-26T07:46:11Z</time>
      </trkpt>
      <trkpt lat="42.23511" lon="8.56408">
        <ele>130.395996</ele>
        <time>2014-06-26T07:46:27Z</time>
      </trkpt>
      <trkpt lat="42.23501" lon="8.56403">
        <ele>128.473389</ele>
        <time>2014-06-26T07:46:43Z</time>
      </trkpt>
      <trkpt lat="42.23499" lon="8.56401">
        <ele>127.511963</ele>
        <time>2014-06-26T07:46:46Z</time>
      </trkpt>
      <trkpt lat="42.23485" lon="8.56392">
        <ele>125.108765</ele>
        <time>2014-06-26T07:47:03Z</time>
      </trkpt>
      <trkpt lat="42.23482" lon="8.56387">
        <ele>124.628052</ele>
        <time>2014-06-26T07:47:07Z</time>
      </trkpt>
      <trkpt lat="42.23475" lon="8.56356">
        <ele>122.705444</ele>
        <time>2014-06-26T07:47:29Z</time>
      </trkpt>
      <trkpt lat="42.23469" lon="8.56346">
        <ele>120.302124</ele>
        <time>2014-06-26T07:47:40Z</time>
      </trkpt>
      <trkpt lat="42.23461" lon="8.56329">
        <ele>117.898804</ele>
        <time>2014-06-26T07:47:58Z</time>
      </trkpt>
      <trkpt lat="42.23461" lon="8.56328">
        <ele>118.860107</ele>
        <time>2014-06-26T07:47:59Z</time>
      </trkpt>
      <trkpt lat="42.2346" lon="8.56324">
        <ele>118.379395</ele>
        <time>2014-06-26T07:48:02Z</time>
      </trkpt>
      <trkpt lat="42.23453" lon="8.56308">
        <ele>115.014893</ele>
        <time>2014-06-26T07:48:20Z</time>
      </trkpt>
      <trkpt lat="42.23447" lon="8.56297">
        <ele>112.611572</ele>
        <time>2014-06-26T07:48:35Z</time>
      </trkpt>
      <trkpt lat="42.23443" lon="8.56291">
        <ele>111.169556</ele>
        <time>2014-06-26T07:48:44Z</time>
      </trkpt>
      <trkpt lat="42.2344" lon="8.56296">
        <ele>108.766235</ele>
        <time>2014-06-26T07:48:58Z</time>
      </trkpt>
      <trkpt lat="42.23435" lon="8.56293">
        <ele>106.363037</ele>
        <time>2014-06-26T07:49:13Z</time>
      </trkpt>
      <trkpt lat="42.23431" lon="8.5628">
        <ele>105.401733</ele>
        <time>2014-06-26T07:49:25Z</time>
      </trkpt>
      <trkpt lat="42.23428" lon="8.56259">
        <ele>104.921021</ele>
        <time>2014-06-26T07:49:39Z</time>
      </trkpt>
      <trkpt lat="42.23414" lon="8.56228">
        <ele>105.401733</ele>
        <time>2014-06-26T07:50:01Z</time>
      </trkpt>
      <trkpt lat="42.23396" lon="8.56196">
        <ele>104.921021</ele>
        <time>2014-06-26T07:50:24Z</time>
      </trkpt>
      <trkpt lat="42.23391" lon="8.56185">
        <ele>104.921021</ele>
        <time>2014-06-26T07:50:39Z</time>
      </trkpt>
      <trkpt lat="42.23383" lon="8.56152">
        <ele>104.921021</ele>
        <time>2014-06-26T07:50:59Z</time>
      </trkpt>
      <trkpt lat="42.23384" lon="8.56121">
        <ele>104.44043</ele>
        <time>2014-06-26T07:51:17Z</time>
      </trkpt>
      <trkpt lat="42.2338" lon="8.56085">
        <ele>103.959717</ele>
        <time>2014-06-26T07:51:38Z</time>
      </trkpt>
      <trkpt lat="42.2337" lon="8.56051">
        <ele>104.921021</ele>
        <time>2014-06-26T07:51:58Z</time>
      </trkpt>
      <trkpt lat="42.23364" lon="8.56015">
        <ele>107.324341</ele>
        <time>2014-06-26T07:52:20Z</time>
      </trkpt>
      <trkpt lat="42.23363" lon="8.56011">
        <ele>108.766235</ele>
        <time>2014-06-26T07:52:24Z</time>
      </trkpt>
      <trkpt lat="42.23361" lon="8.56004">
        <ele>109.727661</ele>
        <time>2014-06-26T07:52:32Z</time>
      </trkpt>
      <trkpt lat="42.23358" lon="8.55988">
        <ele>110.208252</ele>
        <time>2014-06-26T07:52:44Z</time>
      </trkpt>
      <trkpt lat="42.23357" lon="8.55986">
        <ele>109.727661</ele>
        <time>2014-06-26T07:53:07Z</time>
      </trkpt>
      <trkpt lat="42.23355" lon="8.55968">
        <ele>109.246948</ele>
        <time>2014-06-26T07:53:20Z</time>
      </trkpt>
      <trkpt lat="42.23354" lon="8.55961">
        <ele>109.246948</ele>
        <time>2014-06-26T07:53:25Z</time>
      </trkpt>
      <trkpt lat="42.23352" lon="8.55956">
        <ele>108.766235</ele>
        <time>2014-06-26T07:53:29Z</time>
      </trkpt>
      <trkpt lat="42.23346" lon="8.55938">
        <ele>106.843628</ele>
        <time>2014-06-26T07:53:42Z</time>
      </trkpt>
      <trkpt lat="42.2334" lon="8.55923">
        <ele>106.843628</ele>
        <time>2014-06-26T07:53:59Z</time>
      </trkpt>
      <trkpt lat="42.23339" lon="8.55919">
        <ele>103.959717</ele>
        <time>2014-06-26T07:54:06Z</time>
      </trkpt>
      <trkpt lat="42.23339" lon="8.55916">
        <ele>104.44043</ele>
        <time>2014-06-26T07:54:11Z</time>
      </trkpt>
      <trkpt lat="42.23343" lon="8.55909">
        <ele>102.998291</ele>
        <time>2014-06-26T07:54:18Z</time>
      </trkpt>
      <trkpt lat="42.23341" lon="8.55898">
        <ele>100.114502</ele>
        <time>2014-06-26T07:54:31Z</time>
      </trkpt>
      <trkpt lat="42.23343" lon="8.55884">
        <ele>98.672485</ele>
        <time>2014-06-26T07:54:45Z</time>
      </trkpt>
      <trkpt lat="42.23347" lon="8.55866">
        <ele>96.749878</ele>
        <time>2014-06-26T07:55:02Z</time>
      </trkpt>
      <trkpt lat="42.23347" lon="8.55853">
        <ele>95.788452</ele>
        <time>2014-06-26T07:55:14Z</time>
      </trkpt>
      <trkpt lat="42.23349" lon="8.55837">
        <ele>94.827148</ele>
        <time>2014-06-26T07:55:26Z</time>
      </trkpt>
      <trkpt lat="42.23349" lon="8.55835">
        <ele>94.346558</ele>
        <time>2014-06-26T07:55:28Z</time>
      </trkpt>
      <trkpt lat="42.23352" lon="8.55816">
        <ele>93.385132</ele>
        <time>2014-06-26T07:55:46Z</time>
      </trkpt>
      <trkpt lat="42.23352" lon="8.55816">
        <ele>93.385132</ele>
        <time>2014-06-26T07:56:03Z</time>
      </trkpt>
      <trkpt lat="42.23352" lon="8.55814">
        <ele>93.385132</ele>
        <time>2014-06-26T07:56:12Z</time>
      </trkpt>
      <trkpt lat="42.2335" lon="8.55791">
        <ele>91.462524</ele>
        <time>2014-06-26T07:56:31Z</time>
      </trkpt>
      <trkpt lat="42.23348" lon="8.55787">
        <ele>91.462524</ele>
        <time>2014-06-26T07:56:35Z</time>
      </trkpt>
      <trkpt lat="42.23344" lon="8.55775">
        <ele>91.462524</ele>
        <time>2014-06-26T07:56:52Z</time>
      </trkpt>
      <trkpt lat="42.23343" lon="8.55773">
        <ele>90.981934</ele>
        <time>2014-06-26T07:56:54Z</time>
      </trkpt>
      <trkpt lat="42.23331" lon="8.55751">
        <ele>87.136597</ele>
        <time>2014-06-26T07:57:12Z</time>
      </trkpt>
      <trkpt lat="42.23316" lon="8.55727">
        <ele>85.69458</ele>
        <time>2014-06-26T07:57:32Z</time>
      </trkpt>
      <trkpt lat="42.23303" lon="8.55703">
        <ele>83.291382</ele>
        <time>2014-06-26T07:57:50Z</time>
      </trkpt>
      <trkpt lat="42.23299" lon="8.55693">
        <ele>81.849365</ele>
        <time>2014-06-26T07:57:58Z</time>
      </trkpt>
      <trkpt lat="42.23291" lon="8.5568">
        <ele>79.926636</ele>
        <time>2014-06-26T07:58:14Z</time>
      </trkpt>
      <trkpt lat="42.2329" lon="8.55679">
        <ele>80.407471</ele>
        <time>2014-06-26T07:58:28Z</time>
      </trkpt>
      <trkpt lat="42.23286" lon="8.5566">
        <ele>79.926636</ele>
        <time>2014-06-26T07:58:42Z</time>
      </trkpt>
      <trkpt lat="42.23273" lon="8.55634">
        <ele>77.523438</ele>
        <time>2014-06-26T07:59:02Z</time>
      </trkpt>
      <trkpt lat="42.2326" lon="8.55602">
        <ele>76.081421</ele>
        <time>2014-06-26T07:59:24Z</time>
      </trkpt>
      <trkpt lat="42.23258" lon="8.55593">
        <ele>76.081421</ele>
        <time>2014-06-26T07:59:29Z</time>
      </trkpt>
      <trkpt lat="42.23246" lon="8.55563">
        <ele>75.60083</ele>
        <time>2014-06-26T07:59:49Z</time>
      </trkpt>
      <trkpt lat="42.23233" lon="8.55536">
        <ele>76.081421</ele>
        <time>2014-06-26T08:00:10Z</time>
      </trkpt>
      <trkpt lat="42.23219" lon="8.55506">
        <ele>73.678223</ele>
        <time>2014-06-26T08:00:35Z</time>
      </trkpt>
      <trkpt lat="42.23209" lon="8.55488">
        <ele>72.236206</ele>
        <time>2014-06-26T08:00:52Z</time>
      </trkpt>
      <trkpt lat="42.232" lon="8.55483">
        <ele>71.755493</ele>
        <time>2014-06-26T08:01:05Z</time>
      </trkpt>
      <trkpt lat="42.23193" lon="8.55477">
        <ele>70.794189</ele>
        <time>2014-06-26T08:01:13Z</time>
      </trkpt>
      <trkpt lat="42.23188" lon="8.55485">
        <ele>73.197632</ele>
        <time>2014-06-26T08:01:21Z</time>
      </trkpt>
      <trkpt lat="42.23174" lon="8.55488">
        <ele>76.081421</ele>
        <time>2014-06-26T08:01:38Z</time>
      </trkpt>
      <trkpt lat="42.23166" lon="8.55488">
        <ele>79.446045</ele>
        <time>2014-06-26T08:01:49Z</time>
      </trkpt>
      <trkpt lat="42.23151" lon="8.55477">
        <ele>80.888184</ele>
        <time>2014-06-26T08:02:08Z</time>
      </trkpt>
      <trkpt lat="42.23148" lon="8.55473">
        <ele>81.849365</ele>
        <time>2014-06-26T08:02:23Z</time>
      </trkpt>
      <trkpt lat="42.23138" lon="8.55462">
        <ele>84.733398</ele>
        <time>2014-06-26T08:02:45Z</time>
      </trkpt>
      <trkpt lat="42.23135" lon="8.55458">
        <ele>86.175293</ele>
        <time>2014-06-26T08:02:51Z</time>
      </trkpt>
      <trkpt lat="42.23113" lon="8.55438">
        <ele>87.136597</ele>
        <time>2014-06-26T08:03:15Z</time>
      </trkpt>
      <trkpt lat="42.23107" lon="8.5543">
        <ele>87.617188</ele>
        <time>2014-06-26T08:03:31Z</time>
      </trkpt>
      <trkpt lat="42.2309" lon="8.55417">
        <ele>86.656006</ele>
        <time>2014-06-26T08:03:49Z</time>
      </trkpt>
      <trkpt lat="42.23085" lon="8.55412">
        <ele>87.617188</ele>
        <time>2014-06-26T08:03:55Z</time>
      </trkpt>
      <trkpt lat="42.23071" lon="8.55402">
        <ele>90.02063</ele>
        <time>2014-06-26T08:04:15Z</time>
      </trkpt>
      <trkpt lat="42.23064" lon="8.5539">
        <ele>92.42395</ele>
        <time>2014-06-26T08:04:32Z</time>
      </trkpt>
      <trkpt lat="42.2306" lon="8.55379">
        <ele>95.307739</ele>
        <time>2014-06-26T08:04:46Z</time>
      </trkpt>
      <trkpt lat="42.23057" lon="8.55372">
        <ele>96.749878</ele>
        <time>2014-06-26T08:05:01Z</time>
      </trkpt>
      <trkpt lat="42.23058" lon="8.55357">
        <ele>98.191895</ele>
        <time>2014-06-26T08:05:17Z</time>
      </trkpt>
      <trkpt lat="42.2306" lon="8.55348">
        <ele>99.153076</ele>
        <time>2014-06-26T08:05:30Z</time>
      </trkpt>
      <trkpt lat="42.2306" lon="8.55348">
        <ele>100.114502</ele>
        <time>2014-06-26T08:05:52Z</time>
      </trkpt>
      <trkpt lat="42.23059" lon="8.55339">
        <ele>100.595093</ele>
        <time>2014-06-26T08:06:11Z</time>
      </trkpt>
      <trkpt lat="42.23055" lon="8.55327">
        <ele>101.556396</ele>
        <time>2014-06-26T08:06:22Z</time>
      </trkpt>
      <trkpt lat="42.23053" lon="8.55313">
        <ele>103.479004</ele>
        <time>2014-06-26T08:06:37Z</time>
      </trkpt>
      <trkpt lat="42.23055" lon="8.55299">
        <ele>104.921021</ele>
        <time>2014-06-26T08:06:53Z</time>
      </trkpt>
      <trkpt lat="42.23056" lon="8.55296">
        <ele>104.921021</ele>
        <time>2014-06-26T08:07:04Z</time>
      </trkpt>
      <trkpt lat="42.23056" lon="8.55286">
        <ele>107.805054</ele>
        <time>2014-06-26T08:07:12Z</time>
      </trkpt>
      <trkpt lat="42.23061" lon="8.55273">
        <ele>110.208252</ele>
        <time>2014-06-26T08:07:26Z</time>
      </trkpt>
      <trkpt lat="42.23072" lon="8.5526">
        <ele>113.572998</ele>
        <time>2014-06-26T08:07:44Z</time>
      </trkpt>
      <trkpt lat="42.23078" lon="8.55254">
        <ele>115.495605</ele>
        <time>2014-06-26T08:07:58Z</time>
      </trkpt>
      <trkpt lat="42.2308" lon="8.55245">
        <ele>118.860107</ele>
        <time>2014-06-26T08:08:13Z</time>
      </trkpt>
      <trkpt lat="42.23085" lon="8.55236">
        <ele>121.744141</ele>
        <time>2014-06-26T08:08:26Z</time>
      </trkpt>
      <trkpt lat="42.2309" lon="8.5523">
        <ele>121.744141</ele>
        <time>2014-06-26T08:08:42Z</time>
      </trkpt>
      <trkpt lat="42.23096" lon="8.55221">
        <ele>125.108765</ele>
        <time>2014-06-26T08:08:57Z</time>
      </trkpt>
      <trkpt lat="42.23106" lon="8.55222">
        <ele>127.992554</ele>
        <time>2014-06-26T08:09:12Z</time>
      </trkpt>
      <trkpt lat="42.23108" lon="8.55207">
        <ele>129.915283</ele>
        <time>2014-06-26T08:09:28Z</time>
      </trkpt>
      <trkpt lat="42.23118" lon="8.55204">
        <ele>133.760498</ele>
        <time>2014-06-26T08:09:41Z</time>
      </trkpt>
      <trkpt lat="42.2313" lon="8.55202">
        <ele>137.125244</ele>
        <time>2014-06-26T08:09:58Z</time>
      </trkpt>
      <trkpt lat="42.23135" lon="8.55196">
        <ele>137.605835</ele>
        <time>2014-06-26T08:10:12Z</time>
      </trkpt>
      <trkpt lat="42.2314" lon="8.55191">
        <ele>139.528442</ele>
        <time>2014-06-26T08:10:20Z</time>
      </trkpt>
      <trkpt lat="42.23145" lon="8.55187">
        <ele>140.489868</ele>
        <time>2014-06-26T08:10:34Z</time>
      </trkpt>
      <trkpt lat="42.23148" lon="8.55184">
        <ele>140.970459</ele>
        <time>2014-06-26T08:10:38Z</time>
      </trkpt>
      <trkpt lat="42.23159" lon="8.55184">
        <ele>141.931763</ele>
        <time>2014-06-26T08:10:55Z</time>
      </trkpt>
      <trkpt lat="42.23172" lon="8.5519">
        <ele>144.815796</ele>
        <time>2014-06-26T08:11:09Z</time>
      </trkpt>
      <trkpt lat="42.23181" lon="8.55193">
        <ele>145.296387</ele>
        <time>2014-06-26T08:11:25Z</time>
      </trkpt>
      <trkpt lat="42.23195" lon="8.55194">
        <ele>147.699707</ele>
        <time>2014-06-26T08:11:43Z</time>
      </trkpt>
      <trkpt lat="42.23206" lon="8.55203">
        <ele>150.583618</ele>
        <time>2014-06-26T08:12:02Z</time>
      </trkpt>
      <trkpt lat="42.23207" lon="8.55204">
        <ele>149.622314</ele>
        <time>2014-06-26T08:12:18Z</time>
      </trkpt>
      <trkpt lat="42.23213" lon="8.55208">
        <ele>152.025757</ele>
        <time>2014-06-26T08:12:24Z</time>
      </trkpt>
      <trkpt lat="42.23228" lon="8.55218">
        <ele>153.948364</ele>
        <time>2014-06-26T08:12:42Z</time>
      </trkpt>
      <trkpt lat="42.23231" lon="8.55218">
        <ele>153.948364</ele>
        <time>2014-06-26T08:12:46Z</time>
      </trkpt>
      <trkpt lat="42.23238" lon="8.55217">
        <ele>154.909546</ele>
        <time>2014-06-26T08:12:53Z</time>
      </trkpt>
      <trkpt lat="42.23249" lon="8.55212">
        <ele>156.832153</ele>
        <time>2014-06-26T08:13:08Z</time>
      </trkpt>
      <trkpt lat="42.2325" lon="8.55211">
        <ele>157.312866</ele>
        <time>2014-06-26T08:13:19Z</time>
      </trkpt>
      <trkpt lat="42.23252" lon="8.55206">
        <ele>157.793579</ele>
        <time>2014-06-26T08:13:23Z</time>
      </trkpt>
      <trkpt lat="42.23263" lon="8.55204">
        <ele>158.27417</ele>
        <time>2014-06-26T08:13:37Z</time>
      </trkpt>
      <trkpt lat="42.23266" lon="8.55203">
        <ele>158.27417</ele>
        <time>2014-06-26T08:13:40Z</time>
      </trkpt>
      <trkpt lat="42.23269" lon="8.55203">
        <ele>158.754761</ele>
        <time>2014-06-26T08:13:43Z</time>
      </trkpt>
      <trkpt lat="42.2328" lon="8.55192">
        <ele>161.158203</ele>
        <time>2014-06-26T08:13:59Z</time>
      </trkpt>
      <trkpt lat="42.23282" lon="8.55189">
        <ele>161.638916</ele>
        <time>2014-06-26T08:14:02Z</time>
      </trkpt>
      <trkpt lat="42.23295" lon="8.5519">
        <ele>163.561523</ele>
        <time>2014-06-26T08:14:17Z</time>
      </trkpt>
      <trkpt lat="42.23305" lon="8.55185">
        <ele>166.445313</ele>
        <time>2014-06-26T08:14:33Z</time>
      </trkpt>
      <trkpt lat="42.23311" lon="8.55185">
        <ele>169.329468</ele>
        <time>2014-06-26T08:14:48Z</time>
      </trkpt>
      <trkpt lat="42.23318" lon="8.55181">
        <ele>170.771362</ele>
        <time>2014-06-26T08:15:02Z</time>
      </trkpt>
      <trkpt lat="42.23321" lon="8.55175">
        <ele>172.213257</ele>
        <time>2014-06-26T08:15:15Z</time>
      </trkpt>
      <trkpt lat="42.23324" lon="8.55164">
        <ele>173.655273</ele>
        <time>2014-06-26T08:15:29Z</time>
      </trkpt>
      <trkpt lat="42.23326" lon="8.55154">
        <ele>176.058594</ele>
        <time>2014-06-26T08:15:43Z</time>
      </trkpt>
      <trkpt lat="42.23326" lon="8.55148">
        <ele>176.539307</ele>
        <time>2014-06-26T08:15:56Z</time>
      </trkpt>
      <trkpt lat="42.23329" lon="8.55146">
        <ele>178.461914</ele>
        <time>2014-06-26T08:16:17Z</time>
      </trkpt>
      <trkpt lat="42.23329" lon="8.55143">
        <ele>180.865234</ele>
        <time>2014-06-26T08:16:21Z</time>
      </trkpt>
      <trkpt lat="42.23335" lon="8.55141">
        <ele>181.826416</ele>
        <time>2014-06-26T08:16:35Z</time>
      </trkpt>
      <trkpt lat="42.23339" lon="8.55137">
        <ele>183.268433</ele>
        <time>2014-06-26T08:16:48Z</time>
      </trkpt>
      <trkpt lat="42.23341" lon="8.55136">
        <ele>185.191162</ele>
        <time>2014-06-26T08:16:58Z</time>
      </trkpt>
      <trkpt lat="42.23343" lon="8.55133">
        <ele>187.11377</ele>
        <time>2014-06-26T08:17:10Z</time>
      </trkpt>
      <trkpt lat="42.23347" lon="8.55132">
        <ele>189.516968</ele>
        <time>2014-06-26T08:17:24Z</time>
      </trkpt>
      <trkpt lat="42.2335" lon="8.55128">
        <ele>192.881714</ele>
        <time>2014-06-26T08:17:39Z</time>
      </trkpt>
      <trkpt lat="42.23352" lon="8.55124">
        <ele>195.284912</ele>
        <time>2014-06-26T08:17:52Z</time>
      </trkpt>
      <trkpt lat="42.23353" lon="8.55117">
        <ele>197.20752</ele>
        <time>2014-06-26T08:18:09Z</time>
      </trkpt>
      <trkpt lat="42.23358" lon="8.55119">
        <ele>199.130127</ele>
        <time>2014-06-26T08:18:22Z</time>
      </trkpt>
      <trkpt lat="42.23361" lon="8.55113">
        <ele>201.052856</ele>
        <time>2014-06-26T08:18:37Z</time>
      </trkpt>
      <trkpt lat="42.23366" lon="8.55114">
        <ele>203.456177</ele>
        <time>2014-06-26T08:18:51Z</time>
      </trkpt>
      <trkpt lat="42.23369" lon="8.55111">
        <ele>205.378784</ele>
        <time>2014-06-26T08:19:04Z</time>
      </trkpt>
      <trkpt lat="42.23372" lon="8.55109">
        <ele>207.301392</ele>
        <time>2014-06-26T08:19:17Z</time>
      </trkpt>
      <trkpt lat="42.23376" lon="8.55109">
        <ele>208.743408</ele>
        <time>2014-06-26T08:19:29Z</time>
      </trkpt>
      <trkpt lat="42.23382" lon="8.55107">
        <ele>210.185425</ele>
        <time>2014-06-26T08:19:43Z</time>
      </trkpt>
      <trkpt lat="42.23387" lon="8.55104">
        <ele>212.588623</ele>
        <time>2014-06-26T08:19:57Z</time>
      </trkpt>
      <trkpt lat="42.23392" lon="8.55101">
        <ele>214.991943</ele>
        <time>2014-06-26T08:20:11Z</time>
      </trkpt>
      <trkpt lat="42.23397" lon="8.55095">
        <ele>216.43396</ele>
        <time>2014-06-26T08:20:25Z</time>
      </trkpt>
      <trkpt lat="42.23401" lon="8.55094">
        <ele>218.356567</ele>
        <time>2014-06-26T08:20:40Z</time>
      </trkpt>
      <trkpt lat="42.23409" lon="8.5509">
        <ele>221.721191</ele>
        <time>2014-06-26T08:20:56Z</time>
      </trkpt>
      <trkpt lat="42.23416" lon="8.55086">
        <ele>224.605225</ele>
        <time>2014-06-26T08:21:11Z</time>
      </trkpt>
      <trkpt lat="42.23421" lon="8.55079">
        <ele>226.047119</ele>
        <time>2014-06-26T08:21:27Z</time>
      </trkpt>
      <trkpt lat="42.23431" lon="8.55081">
        <ele>229.411743</ele>
        <time>2014-06-26T08:21:42Z</time>
      </trkpt>
      <trkpt lat="42.23436" lon="8.55085">
        <ele>230.85376</ele>
        <time>2014-06-26T08:21:56Z</time>
      </trkpt>
      <trkpt lat="42.23445" lon="8.55082">
        <ele>232.776489</ele>
        <time>2014-06-26T08:22:11Z</time>
      </trkpt>
      <trkpt lat="42.23452" lon="8.55076">
        <ele>233.737671</ele>
        <time>2014-06-26T08:22:26Z</time>
      </trkpt>
      <trkpt lat="42.23454" lon="8.55068">
        <ele>235.179688</ele>
        <time>2014-06-26T08:22:45Z</time>
      </trkpt>
      <trkpt lat="42.23459" lon="8.55065">
        <ele>238.544312</ele>
        <time>2014-06-26T08:23:01Z</time>
      </trkpt>
      <trkpt lat="42.23464" lon="8.55066">
        <ele>239.986206</ele>
        <time>2014-06-26T08:23:16Z</time>
      </trkpt>
      <trkpt lat="42.23471" lon="8.55066">
        <ele>242.389648</ele>
        <time>2014-06-26T08:23:31Z</time>
      </trkpt>
      <trkpt lat="42.23476" lon="8.55066">
        <ele>243.35083</ele>
        <time>2014-06-26T08:23:44Z</time>
      </trkpt>
      <trkpt lat="42.23483" lon="8.5507">
        <ele>244.792847</ele>
        <time>2014-06-26T08:23:58Z</time>
      </trkpt>
      <trkpt lat="42.23488" lon="8.55066">
        <ele>247.676758</ele>
        <time>2014-06-26T08:24:13Z</time>
      </trkpt>
      <trkpt lat="42.23496" lon="8.55068">
        <ele>249.599487</ele>
        <time>2014-06-26T08:24:28Z</time>
      </trkpt>
      <trkpt lat="42.23504" lon="8.55064">
        <ele>252.002808</ele>
        <time>2014-06-26T08:24:44Z</time>
      </trkpt>
      <trkpt lat="42.23511" lon="8.55062">
        <ele>254.886597</ele>
        <time>2014-06-26T08:25:00Z</time>
      </trkpt>
      <trkpt lat="42.23516" lon="8.55061">
        <ele>256.809326</ele>
        <time>2014-06-26T08:25:13Z</time>
      </trkpt>
      <trkpt lat="42.23524" lon="8.55057">
        <ele>258.731934</ele>
        <time>2014-06-26T08:25:28Z</time>
      </trkpt>
      <trkpt lat="42.23529" lon="8.5505">
        <ele>262.096558</ele>
        <time>2014-06-26T08:25:42Z</time>
      </trkpt>
      <trkpt lat="42.23537" lon="8.55047">
        <ele>265.461304</ele>
        <time>2014-06-26T08:25:57Z</time>
      </trkpt>
      <trkpt lat="42.2354" lon="8.55044">
        <ele>267.864502</ele>
        <time>2014-06-26T08:26:08Z</time>
      </trkpt>
      <trkpt lat="42.23545" lon="8.5505">
        <ele>269.787109</ele>
        <time>2014-06-26T08:26:24Z</time>
      </trkpt>
      <trkpt lat="42.23548" lon="8.5505">
        <ele>271.229126</ele>
        <time>2014-06-26T08:26:37Z</time>
      </trkpt>
      <trkpt lat="42.23554" lon="8.5505">
        <ele>273.151855</ele>
        <time>2014-06-26T08:26:52Z</time>
      </trkpt>
      <trkpt lat="42.23559" lon="8.5505">
        <ele>273.632446</ele>
        <time>2014-06-26T08:27:04Z</time>
      </trkpt>
      <trkpt lat="42.23563" lon="8.55054">
        <ele>276.99707</ele>
        <time>2014-06-26T08:27:14Z</time>
      </trkpt>
      <trkpt lat="42.23564" lon="8.55054">
        <ele>277.958252</ele>
        <time>2014-06-26T08:27:16Z</time>
      </trkpt>
      <trkpt lat="42.23565" lon="8.55055">
        <ele>277.477661</ele>
        <time>2014-06-26T08:27:44Z</time>
      </trkpt>
      <trkpt lat="42.23569" lon="8.55054">
        <ele>280.842407</ele>
        <time>2014-06-26T08:27:52Z</time>
      </trkpt>
      <trkpt lat="42.23575" lon="8.55053">
        <ele>282.765015</ele>
        <time>2014-06-26T08:28:07Z</time>
      </trkpt>
      <trkpt lat="42.23582" lon="8.55057">
        <ele>284.687622</ele>
        <time>2014-06-26T08:28:20Z</time>
      </trkpt>
      <trkpt lat="42.23589" lon="8.55058">
        <ele>286.610229</ele>
        <time>2014-06-26T08:28:33Z</time>
      </trkpt>
      <trkpt lat="42.23594" lon="8.5506">
        <ele>289.01355</ele>
        <time>2014-06-26T08:28:45Z</time>
      </trkpt>
      <trkpt lat="42.236" lon="8.55053">
        <ele>291.416748</ele>
        <time>2014-06-26T08:28:59Z</time>
      </trkpt>
      <trkpt lat="42.23605" lon="8.55042">
        <ele>293.820068</ele>
        <time>2014-06-26T08:29:13Z</time>
      </trkpt>
      <trkpt lat="42.23606" lon="8.55042">
        <ele>293.339355</ele>
        <time>2014-06-26T08:29:15Z</time>
      </trkpt>
      <trkpt lat="42.23613" lon="8.5504">
        <ele>294.781372</ele>
        <time>2014-06-26T08:29:29Z</time>
      </trkpt>
      <trkpt lat="42.23613" lon="8.55047">
        <ele>296.223511</ele>
        <time>2014-06-26T08:29:52Z</time>
      </trkpt>
      <trkpt lat="42.23618" lon="8.5505">
        <ele>298.146118</ele>
        <time>2014-06-26T08:30:08Z</time>
      </trkpt>
      <trkpt lat="42.23619" lon="8.55053">
        <ele>299.588013</ele>
        <time>2014-06-26T08:30:20Z</time>
      </trkpt>
      <trkpt lat="42.23617" lon="8.55056">
        <ele>299.1073</ele>
        <time>2014-06-26T08:30:33Z</time>
      </trkpt>
      <trkpt lat="42.2362" lon="8.55061">
        <ele>301.029907</ele>
        <time>2014-06-26T08:31:02Z</time>
      </trkpt>
      <trkpt lat="42.23622" lon="8.55067">
        <ele>300.549316</ele>
        <time>2014-06-26T08:31:15Z</time>
      </trkpt>
      <trkpt lat="42.23624" lon="8.55073">
        <ele>301.029907</ele>
        <time>2014-06-26T08:31:28Z</time>
      </trkpt>
      <trkpt lat="42.23622" lon="8.55076">
        <ele>300.068726</ele>
        <time>2014-06-26T08:31:34Z</time>
      </trkpt>
      <trkpt lat="42.23618" lon="8.55084">
        <ele>300.068726</ele>
        <time>2014-06-26T08:31:48Z</time>
      </trkpt>
      <trkpt lat="42.23622" lon="8.5509">
        <ele>301.991333</ele>
        <time>2014-06-26T08:32:02Z</time>
      </trkpt>
      <trkpt lat="42.23626" lon="8.5509">
        <ele>304.875244</ele>
        <time>2014-06-26T08:32:16Z</time>
      </trkpt>
      <trkpt lat="42.23631" lon="8.5509">
        <ele>307.278564</ele>
        <time>2014-06-26T08:32:29Z</time>
      </trkpt>
      <trkpt lat="42.23635" lon="8.5509">
        <ele>309.201172</ele>
        <time>2014-06-26T08:32:42Z</time>
      </trkpt>
      <trkpt lat="42.23634" lon="8.5509">
        <ele>309.681885</ele>
        <time>2014-06-26T08:32:44Z</time>
      </trkpt>
      <trkpt lat="42.23637" lon="8.55095">
        <ele>312.565796</ele>
        <time>2014-06-26T08:32:58Z</time>
      </trkpt>
      <trkpt lat="42.23643" lon="8.55102">
        <ele>313.046509</ele>
        <time>2014-06-26T08:33:11Z</time>
      </trkpt>
      <trkpt lat="42.23651" lon="8.55102">
        <ele>315.93042</ele>
        <time>2014-06-26T08:33:25Z</time>
      </trkpt>
      <trkpt lat="42.23656" lon="8.55105">
        <ele>315.93042</ele>
        <time>2014-06-26T08:33:40Z</time>
      </trkpt>
      <trkpt lat="42.23657" lon="8.55105">
        <ele>315.93042</ele>
        <time>2014-06-26T08:33:41Z</time>
      </trkpt>
      <trkpt lat="42.23658" lon="8.55111">
        <ele>318.333618</ele>
        <time>2014-06-26T08:33:56Z</time>
      </trkpt>
      <trkpt lat="42.2366" lon="8.55117">
        <ele>319.295044</ele>
        <time>2014-06-26T08:34:10Z</time>
      </trkpt>
      <trkpt lat="42.23657" lon="8.55126">
        <ele>322.178955</ele>
        <time>2014-06-26T08:34:25Z</time>
      </trkpt>
      <trkpt lat="42.23649" lon="8.55132">
        <ele>324.101563</ele>
        <time>2014-06-26T08:34:41Z</time>
      </trkpt>
      <trkpt lat="42.23642" lon="8.55144">
        <ele>326.02417</ele>
        <time>2014-06-26T08:34:56Z</time>
      </trkpt>
      <trkpt lat="42.2364" lon="8.55158">
        <ele>327.946777</ele>
        <time>2014-06-26T08:35:09Z</time>
      </trkpt>
      <trkpt lat="42.23638" lon="8.55167">
        <ele>328.427612</ele>
        <time>2014-06-26T08:35:20Z</time>
      </trkpt>
      <trkpt lat="42.23641" lon="8.55169">
        <ele>328.908325</ele>
        <time>2014-06-26T08:35:27Z</time>
      </trkpt>
      <trkpt lat="42.23649" lon="8.55183">
        <ele>329.869507</ele>
        <time>2014-06-26T08:35:43Z</time>
      </trkpt>
      <trkpt lat="42.23657" lon="8.55198">
        <ele>330.35022</ele>
        <time>2014-06-26T08:36:00Z</time>
      </trkpt>
      <trkpt lat="42.23657" lon="8.55201">
        <ele>330.830933</ele>
        <time>2014-06-26T08:36:02Z</time>
      </trkpt>
      <trkpt lat="42.23656" lon="8.55203">
        <ele>331.311523</ele>
        <time>2014-06-26T08:36:04Z</time>
      </trkpt>
      <trkpt lat="42.23653" lon="8.55214">
        <ele>330.830933</ele>
        <time>2014-06-26T08:36:15Z</time>
      </trkpt>
      <trkpt lat="42.23653" lon="8.55224">
        <ele>331.311523</ele>
        <time>2014-06-26T08:36:29Z</time>
      </trkpt>
      <trkpt lat="42.23658" lon="8.55223">
        <ele>334.676147</ele>
        <time>2014-06-26T08:36:45Z</time>
      </trkpt>
      <trkpt lat="42.23661" lon="8.55221">
        <ele>333.234131</ele>
        <time>2014-06-26T08:36:53Z</time>
      </trkpt>
      <trkpt lat="42.23665" lon="8.55217">
        <ele>334.195435</ele>
        <time>2014-06-26T08:37:06Z</time>
      </trkpt>
      <trkpt lat="42.23666" lon="8.55218">
        <ele>332.272827</ele>
        <time>2014-06-26T08:37:39Z</time>
      </trkpt>
      <trkpt lat="42.23666" lon="8.55217">
        <ele>336.118164</ele>
        <time>2014-06-26T08:38:02Z</time>
      </trkpt>
      <trkpt lat="42.23666" lon="8.55217">
        <ele>336.118164</ele>
        <time>2014-06-26T08:38:09Z</time>
      </trkpt>
      <trkpt lat="42.23665" lon="8.55217">
        <ele>334.676147</ele>
        <time>2014-06-26T08:38:14Z</time>
      </trkpt>
      <trkpt lat="42.23663" lon="8.55219">
        <ele>333.714722</ele>
        <time>2014-06-26T08:38:27Z</time>
      </trkpt>
      <trkpt lat="42.23661" lon="8.55223">
        <ele>334.195435</ele>
        <time>2014-06-26T08:38:34Z</time>
      </trkpt>
      <trkpt lat="42.23661" lon="8.55223">
        <ele>332.272827</ele>
        <time>2014-06-26T08:38:37Z</time>
      </trkpt>
      <trkpt lat="42.2366" lon="8.55223">
        <ele>332.272827</ele>
        <time>2014-06-26T08:38:59Z</time>
      </trkpt>
      <trkpt lat="42.23658" lon="8.55221">
        <ele>335.637329</ele>
        <time>2014-06-26T08:42:49Z</time>
      </trkpt>
      <trkpt lat="42.23654" lon="8.55223">
        <ele>333.714722</ele>
        <time>2014-06-26T08:42:54Z</time>
      </trkpt>
      <trkpt lat="42.23653" lon="8.55223">
        <ele>334.195435</ele>
        <time>2014-06-26T08:42:55Z</time>
      </trkpt>
      <trkpt lat="42.23651" lon="8.55223">
        <ele>332.75354</ele>
        <time>2014-06-26T08:42:57Z</time>
      </trkpt>
      <trkpt lat="42.23647" lon="8.55215">
        <ele>329.869507</ele>
        <time>2014-06-26T08:43:07Z</time>
      </trkpt>
      <trkpt lat="42.23647" lon="8.55209">
        <ele>329.388916</ele>
        <time>2014-06-26T08:43:14Z</time>
      </trkpt>
      <trkpt lat="42.23648" lon="8.55206">
        <ele>329.869507</ele>
        <time>2014-06-26T08:43:20Z</time>
      </trkpt>
      <trkpt lat="42.23652" lon="8.55204">
        <ele>330.35022</ele>
        <time>2014-06-26T08:43:28Z</time>
      </trkpt>
      <trkpt lat="42.23658" lon="8.55207">
        <ele>330.830933</ele>
        <time>2014-06-26T08:43:40Z</time>
      </trkpt>
      <trkpt lat="42.23658" lon="8.55208">
        <ele>329.869507</ele>
        <time>2014-06-26T08:43:55Z</time>
      </trkpt>
      <trkpt lat="42.23658" lon="8.55208">
        <ele>332.75354</ele>
        <time>2014-06-26T08:44:02Z</time>
      </trkpt>
      <trkpt lat="42.23658" lon="8.55208">
        <ele>328.908325</ele>
        <time>2014-06-26T08:44:04Z</time>
      </trkpt>
      <trkpt lat="42.23658" lon="8.55208">
        <ele>329.388916</ele>
        <time>2014-06-26T08:44:05Z</time>
      </trkpt>
      <trkpt lat="42.23659" lon="8.55208">
        <ele>330.830933</ele>
        <time>2014-06-26T08:44:08Z</time>
      </trkpt>
      <trkpt lat="42.23659" lon="8.55208">
        <ele>329.388916</ele>
        <time>2014-06-26T08:44:11Z</time>
      </trkpt>
      <trkpt lat="42.23658" lon="8.55208">
        <ele>328.908325</ele>
        <time>2014-06-26T08:44:31Z</time>
      </trkpt>
      <trkpt lat="42.23658" lon="8.55208">
        <ele>328.427612</ele>
        <time>2014-06-26T08:44:39Z</time>
      </trkpt>
      <trkpt lat="42.23658" lon="8.55208">
        <ele>328.908325</ele>
        <time>2014-06-26T08:46:30Z</time>
      </trkpt>
      <trkpt lat="42.23658" lon="8.55207">
        <ele>329.869507</ele>
        <time>2014-06-26T08:48:17Z</time>
      </trkpt>
      <trkpt lat="42.23667" lon="8.55206">
        <ele>329.869507</ele>
        <time>2014-06-26T08:48:31Z</time>
      </trkpt>
      <trkpt lat="42.23667" lon="8.55207">
        <ele>329.869507</ele>
        <time>2014-06-26T08:49:02Z</time>
      </trkpt>
      <trkpt lat="42.23667" lon="8.55207">
        <ele>330.830933</ele>
        <time>2014-06-26T08:49:18Z</time>
      </trkpt>
      <trkpt lat="42.23669" lon="8.55205">
        <ele>329.869507</ele>
        <time>2014-06-26T08:49:49Z</time>
      </trkpt>
      <trkpt lat="42.23669" lon="8.55206">
        <ele>329.388916</ele>
        <time>2014-06-26T08:50:20Z</time>
      </trkpt>
      <trkpt lat="42.23669" lon="8.55206">
        <ele>329.869507</ele>
        <time>2014-06-26T08:50:51Z</time>
      </trkpt>
      <trkpt lat="42.2367" lon="8.55206">
        <ele>329.869507</ele>
        <time>2014-06-26T08:51:31Z</time>
      </trkpt>
      <trkpt lat="42.23668" lon="8.55205">
        <ele>328.908325</ele>
        <time>2014-06-26T08:51:42Z</time>
      </trkpt>
      <trkpt lat="42.23668" lon="8.55203">
        <ele>331.311523</ele>
        <time>2014-06-26T08:51:46Z</time>
      </trkpt>
      <trkpt lat="42.23668" lon="8.55204">
        <ele>329.388916</ele>
        <time>2014-06-26T08:51:49Z</time>
      </trkpt>
      <trkpt lat="42.23671" lon="8.55203">
        <ele>330.35022</ele>
        <time>2014-06-26T08:54:02Z</time>
      </trkpt>
      <trkpt lat="42.23669" lon="8.55203">
        <ele>329.869507</ele>
        <time>2014-06-26T08:55:21Z</time>
      </trkpt>
      <trkpt lat="42.23669" lon="8.55203">
        <ele>331.311523</ele>
        <time>2014-06-26T08:55:23Z</time>
      </trkpt>
      <trkpt lat="42.23667" lon="8.55203">
        <ele>331.792114</ele>
        <time>2014-06-26T08:56:24Z</time>
      </trkpt>
      <trkpt lat="42.2366" lon="8.55208">
        <ele>332.272827</ele>
        <time>2014-06-26T08:56:37Z</time>
      </trkpt>
      <trkpt lat="42.2366" lon="8.55212">
        <ele>332.272827</ele>
        <time>2014-06-26T08:56:44Z</time>
      </trkpt>
      <trkpt lat="42.23661" lon="8.55214">
        <ele>331.792114</ele>
        <time>2014-06-26T08:56:52Z</time>
      </trkpt>
      <trkpt lat="42.23659" lon="8.55209">
        <ele>331.792114</ele>
        <time>2014-06-26T08:57:08Z</time>
      </trkpt>
      <trkpt lat="42.23662" lon="8.55202">
        <ele>329.388916</ele>
        <time>2014-06-26T08:57:28Z</time>
      </trkpt>
      <trkpt lat="42.23658" lon="8.55207">
        <ele>329.869507</ele>
        <time>2014-06-26T08:58:13Z</time>
      </trkpt>
      <trkpt lat="42.23661" lon="8.55214">
        <ele>331.311523</ele>
        <time>2014-06-26T08:58:57Z</time>
      </trkpt>
      <trkpt lat="42.23663" lon="8.55216">
        <ele>330.830933</ele>
        <time>2014-06-26T08:59:12Z</time>
      </trkpt>
      <trkpt lat="42.23665" lon="8.55236">
        <ele>329.869507</ele>
        <time>2014-06-26T09:00:10Z</time>
      </trkpt>
      <trkpt lat="42.23666" lon="8.5524">
        <ele>328.908325</ele>
        <time>2014-06-26T09:01:20Z</time>
      </trkpt>
      <trkpt lat="42.23667" lon="8.55241">
        <ele>332.75354</ele>
        <time>2014-06-26T09:01:27Z</time>
      </trkpt>
      <trkpt lat="42.23667" lon="8.55241">
        <ele>329.388916</ele>
        <time>2014-06-26T09:01:29Z</time>
      </trkpt>
      <trkpt lat="42.23667" lon="8.55241">
        <ele>329.388916</ele>
        <time>2014-06-26T09:01:30Z</time>
      </trkpt>
    </trkseg>
  </trk>
  <trk>
    <name><![CDATA[ACTIVE LOG 003]]></name>
    <trkseg>
      <trkpt lat="42.2367" lon="8.55244">
        <ele>329.388916</ele>
        <time>2014-06-26T09:01:49Z</time>
      </trkpt>
    </trkseg>
  </trk>
  <trk>
    <name><![CDATA[ACTIVE LOG 004]]></name>
    <trkseg>
      <trkpt lat="42.23668" lon="8.55233">
        <ele>328.908325</ele>
        <time>2014-06-26T09:02:22Z</time>
      </trkpt>
      <trkpt lat="42.23669" lon="8.55243">
        <ele>328.908325</ele>
        <time>2014-06-26T09:02:36Z</time>
      </trkpt>
    </trkseg>
  </trk>
  <trk>
    <name><![CDATA[ACTIVE LOG 005]]></name>
    <trkseg>
      <trkpt lat="42.23681" lon="8.55234">
        <ele>328.427612</ele>
        <time>2014-06-26T09:03:05Z</time>
      </trkpt>
    </trkseg>
  </trk>
  <trk>
    <name><![CDATA[ACTIVE LOG 006]]></name>
    <trkseg>
      <trkpt lat="42.23665" lon="8.5525">
        <ele>328.908325</ele>
        <time>2014-06-26T09:03:09Z</time>
      </trkpt>
      <trkpt lat="42.2367" lon="8.55249">
        <ele>328.908325</ele>
        <time>2014-06-26T09:03:32Z</time>
      </trkpt>
    </trkseg>
  </trk>
  <trk>
    <name><![CDATA[ACTIVE LOG 007]]></name>
    <trkseg>
      <trkpt lat="42.2368" lon="8.55241">
        <ele>327.466187</ele>
        <time>2014-06-26T09:04:09Z</time>
      </trkpt>
      <trkpt lat="42.2368" lon="8.55241">
        <ele>329.388916</ele>
        <time>2014-06-26T09:04:29Z</time>
      </trkpt>
      <trkpt lat="42.2368" lon="8.55241">
        <ele>327.946777</ele>
        <time>2014-06-26T09:04:30Z</time>
      </trkpt>
    </trkseg>
  </trk>
  <trk>
    <name><![CDATA[ACTIVE LOG 008]]></name>
    <trkseg>
      <trkpt lat="42.23662" lon="8.55253">
        <ele>327.466187</ele>
        <time>2014-06-26T09:04:33Z</time>
      </trkpt>
      <trkpt lat="42.23672" lon="8.55248">
        <ele>326.504883</ele>
        <time>2014-06-26T09:05:03Z</time>
      </trkpt>
      <trkpt lat="42.23668" lon="8.55252">
        <ele>327.466187</ele>
        <time>2014-06-26T09:05:15Z</time>
      </trkpt>
      <trkpt lat="42.23663" lon="8.55214">
        <ele>326.985596</ele>
        <time>2014-06-26T09:06:08Z</time>
      </trkpt>
      <trkpt lat="42.23665" lon="8.55218">
        <ele>326.504883</ele>
        <time>2014-06-26T09:06:26Z</time>
      </trkpt>
      <trkpt lat="42.23661" lon="8.55204">
        <ele>326.985596</ele>
        <time>2014-06-26T09:06:59Z</time>
      </trkpt>
      <trkpt lat="42.23661" lon="8.552">
        <ele>326.985596</ele>
        <time>2014-06-26T09:07:29Z</time>
      </trkpt>
      <trkpt lat="42.2366" lon="8.55206">
        <ele>327.466187</ele>
        <time>2014-06-26T09:08:06Z</time>
      </trkpt>
      <trkpt lat="42.2366" lon="8.55206">
        <ele>330.830933</ele>
        <time>2014-06-26T09:08:46Z</time>
      </trkpt>
      <trkpt lat="42.2366" lon="8.55206">
        <ele>328.427612</ele>
        <time>2014-06-26T09:08:50Z</time>
      </trkpt>
      <trkpt lat="42.23659" lon="8.55209">
        <ele>330.35022</ele>
        <time>2014-06-26T09:09:08Z</time>
      </trkpt>
      <trkpt lat="42.2366" lon="8.55209">
        <ele>332.272827</ele>
        <time>2014-06-26T09:09:15Z</time>
      </trkpt>
      <trkpt lat="42.2366" lon="8.5521">
        <ele>332.272827</ele>
        <time>2014-06-26T09:09:21Z</time>
      </trkpt>
      <trkpt lat="42.2366" lon="8.5521">
        <ele>329.388916</ele>
        <time>2014-06-26T09:09:23Z</time>
      </trkpt>
      <trkpt lat="42.2366" lon="8.55209">
        <ele>333.234131</ele>
        <time>2014-06-26T09:09:26Z</time>
      </trkpt>
      <trkpt lat="42.2366" lon="8.55209">
        <ele>328.908325</ele>
        <time>2014-06-26T09:09:28Z</time>
      </trkpt>
      <trkpt lat="42.2366" lon="8.5521">
        <ele>329.388916</ele>
        <time>2014-06-26T09:09:29Z</time>
      </trkpt>
      <trkpt lat="42.2366" lon="8.5521">
        <ele>333.714722</ele>
        <time>2014-06-26T09:09:35Z</time>
      </trkpt>
      <trkpt lat="42.2366" lon="8.5521">
        <ele>332.75354</ele>
        <time>2014-06-26T09:09:36Z</time>
      </trkpt>
      <trkpt lat="42.23659" lon="8.55209">
        <ele>329.388916</ele>
        <time>2014-06-26T09:09:48Z</time>
      </trkpt>
      <trkpt lat="42.23657" lon="8.55205">
        <ele>328.427612</ele>
        <time>2014-06-26T09:10:00Z</time>
      </trkpt>
      <trkpt lat="42.23656" lon="8.55202">
        <ele>328.908325</ele>
        <time>2014-06-26T09:10:14Z</time>
      </trkpt>
      <trkpt lat="42.23654" lon="8.55195">
        <ele>327.946777</ele>
        <time>2014-06-26T09:10:28Z</time>
      </trkpt>
      <trkpt lat="42.23652" lon="8.55192">
        <ele>327.466187</ele>
        <time>2014-06-26T09:10:40Z</time>
      </trkpt>
      <trkpt lat="42.23647" lon="8.55185">
        <ele>328.427612</ele>
        <time>2014-06-26T09:10:59Z</time>
      </trkpt>
      <trkpt lat="42.23641" lon="8.55177">
        <ele>325.543579</ele>
        <time>2014-06-26T09:11:15Z</time>
      </trkpt>
      <trkpt lat="42.23635" lon="8.55161">
        <ele>324.582275</ele>
        <time>2014-06-26T09:11:31Z</time>
      </trkpt>
      <trkpt lat="42.23636" lon="8.55156">
        <ele>323.620972</ele>
        <time>2014-06-26T09:11:45Z</time>
      </trkpt>
      <trkpt lat="42.23636" lon="8.55152">
        <ele>324.582275</ele>
        <time>2014-06-26T09:11:49Z</time>
      </trkpt>
      <trkpt lat="42.23638" lon="8.55148">
        <ele>322.178955</ele>
        <time>2014-06-26T09:11:52Z</time>
      </trkpt>
      <trkpt lat="42.23641" lon="8.55138">
        <ele>321.698364</ele>
        <time>2014-06-26T09:12:02Z</time>
      </trkpt>
      <trkpt lat="42.23648" lon="8.5513">
        <ele>321.217773</ele>
        <time>2014-06-26T09:12:16Z</time>
      </trkpt>
      <trkpt lat="42.23655" lon="8.55122">
        <ele>319.775635</ele>
        <time>2014-06-26T09:12:31Z</time>
      </trkpt>
      <trkpt lat="42.23657" lon="8.55116">
        <ele>317.372437</ele>
        <time>2014-06-26T09:12:43Z</time>
      </trkpt>
      <trkpt lat="42.23655" lon="8.55115">
        <ele>315.93042</ele>
        <time>2014-06-26T09:12:45Z</time>
      </trkpt>
      <trkpt lat="42.23649" lon="8.55111">
        <ele>314.969116</ele>
        <time>2014-06-26T09:12:55Z</time>
      </trkpt>
      <trkpt lat="42.23647" lon="8.55112">
        <ele>314.007813</ele>
        <time>2014-06-26T09:13:11Z</time>
      </trkpt>
      <trkpt lat="42.23647" lon="8.55112">
        <ele>315.449829</ele>
        <time>2014-06-26T09:13:15Z</time>
      </trkpt>
      <trkpt lat="42.23643" lon="8.55114">
        <ele>313.046509</ele>
        <time>2014-06-26T09:13:25Z</time>
      </trkpt>
      <trkpt lat="42.23642" lon="8.55104">
        <ele>311.123779</ele>
        <time>2014-06-26T09:13:39Z</time>
      </trkpt>
      <trkpt lat="42.23634" lon="8.55098">
        <ele>309.201172</ele>
        <time>2014-06-26T09:13:54Z</time>
      </trkpt>
      <trkpt lat="42.2363" lon="8.55092">
        <ele>308.720459</ele>
        <time>2014-06-26T09:14:07Z</time>
      </trkpt>
      <trkpt lat="42.23631" lon="8.55089">
        <ele>307.278564</ele>
        <time>2014-06-26T09:14:19Z</time>
      </trkpt>
      <trkpt lat="42.23624" lon="8.55091">
        <ele>304.394653</ele>
        <time>2014-06-26T09:14:35Z</time>
      </trkpt>
      <trkpt lat="42.2362" lon="8.55091">
        <ele>301.991333</ele>
        <time>2014-06-26T09:14:49Z</time>
      </trkpt>
      <trkpt lat="42.23615" lon="8.55091">
        <ele>299.1073</ele>
        <time>2014-06-26T09:15:04Z</time>
      </trkpt>
      <trkpt lat="42.23611" lon="8.55085">
        <ele>296.223511</ele>
        <time>2014-06-26T09:15:18Z</time>
      </trkpt>
      <trkpt lat="42.23607" lon="8.55083">
        <ele>294.300781</ele>
        <time>2014-06-26T09:15:30Z</time>
      </trkpt>
      <trkpt lat="42.23604" lon="8.55079">
        <ele>293.339355</ele>
        <time>2014-06-26T09:15:47Z</time>
      </trkpt>
      <trkpt lat="42.23602" lon="8.55071">
        <ele>292.378174</ele>
        <time>2014-06-26T09:16:00Z</time>
      </trkpt>
      <trkpt lat="42.23599" lon="8.55061">
        <ele>290.936157</ele>
        <time>2014-06-26T09:16:15Z</time>
      </trkpt>
      <trkpt lat="42.23593" lon="8.55062">
        <ele>289.494141</ele>
        <time>2014-06-26T09:16:30Z</time>
      </trkpt>
      <trkpt lat="42.23585" lon="8.55056">
        <ele>286.610229</ele>
        <time>2014-06-26T09:16:48Z</time>
      </trkpt>
      <trkpt lat="42.2358" lon="8.55056">
        <ele>284.687622</ele>
        <time>2014-06-26T09:17:02Z</time>
      </trkpt>
      <trkpt lat="42.23574" lon="8.55056">
        <ele>282.765015</ele>
        <time>2014-06-26T09:17:17Z</time>
      </trkpt>
      <trkpt lat="42.23569" lon="8.55055">
        <ele>279.880859</ele>
        <time>2014-06-26T09:17:31Z</time>
      </trkpt>
      <trkpt lat="42.23564" lon="8.55055">
        <ele>276.99707</ele>
        <time>2014-06-26T09:17:44Z</time>
      </trkpt>
      <trkpt lat="42.23557" lon="8.55055">
        <ele>274.59375</ele>
        <time>2014-06-26T09:18:00Z</time>
      </trkpt>
      <trkpt lat="42.23552" lon="8.55051">
        <ele>271.709717</ele>
        <time>2014-06-26T09:18:12Z</time>
      </trkpt>
      <trkpt lat="42.23548" lon="8.55048">
        <ele>267.864502</ele>
        <time>2014-06-26T09:18:27Z</time>
      </trkpt>
      <trkpt lat="42.23543" lon="8.55047">
        <ele>267.383911</ele>
        <time>2014-06-26T09:18:41Z</time>
      </trkpt>
      <trkpt lat="42.23536" lon="8.55049">
        <ele>264.980591</ele>
        <time>2014-06-26T09:18:56Z</time>
      </trkpt>
      <trkpt lat="42.23528" lon="8.5505">
        <ele>262.096558</ele>
        <time>2014-06-26T09:19:10Z</time>
      </trkpt>
      <trkpt lat="42.23522" lon="8.55056">
        <ele>258.731934</ele>
        <time>2014-06-26T09:19:24Z</time>
      </trkpt>
      <trkpt lat="42.23516" lon="8.55058">
        <ele>256.809326</ele>
        <time>2014-06-26T09:19:36Z</time>
      </trkpt>
      <trkpt lat="42.23509" lon="8.55062">
        <ele>254.406006</ele>
        <time>2014-06-26T09:19:50Z</time>
      </trkpt>
      <trkpt lat="42.23502" lon="8.55065">
        <ele>252.002808</ele>
        <time>2014-06-26T09:20:05Z</time>
      </trkpt>
      <trkpt lat="42.23501" lon="8.55066">
        <ele>250.560791</ele>
        <time>2014-06-26T09:20:07Z</time>
      </trkpt>
      <trkpt lat="42.23491" lon="8.55066">
        <ele>247.676758</ele>
        <time>2014-06-26T09:20:22Z</time>
      </trkpt>
      <trkpt lat="42.23483" lon="8.55073">
        <ele>245.75415</ele>
        <time>2014-06-26T09:20:37Z</time>
      </trkpt>
      <trkpt lat="42.23476" lon="8.55067">
        <ele>242.870239</ele>
        <time>2014-06-26T09:20:49Z</time>
      </trkpt>
      <trkpt lat="42.23474" lon="8.55068">
        <ele>242.870239</ele>
        <time>2014-06-26T09:20:51Z</time>
      </trkpt>
      <trkpt lat="42.23467" lon="8.55076">
        <ele>239.024902</ele>
        <time>2014-06-26T09:21:05Z</time>
      </trkpt>
      <trkpt lat="42.23464" lon="8.55079">
        <ele>237.102295</ele>
        <time>2014-06-26T09:21:16Z</time>
      </trkpt>
      <trkpt lat="42.23458" lon="8.55077">
        <ele>235.179688</ele>
        <time>2014-06-26T09:21:28Z</time>
      </trkpt>
      <trkpt lat="42.23454" lon="8.55076">
        <ele>234.699097</ele>
        <time>2014-06-26T09:21:44Z</time>
      </trkpt>
      <trkpt lat="42.23445" lon="8.5508">
        <ele>232.776489</ele>
        <time>2014-06-26T09:21:56Z</time>
      </trkpt>
      <trkpt lat="42.23442" lon="8.5508">
        <ele>231.334351</ele>
        <time>2014-06-26T09:21:59Z</time>
      </trkpt>
      <trkpt lat="42.23438" lon="8.5508">
        <ele>231.334351</ele>
        <time>2014-06-26T09:22:04Z</time>
      </trkpt>
      <trkpt lat="42.23432" lon="8.55085">
        <ele>229.411743</ele>
        <time>2014-06-26T09:22:12Z</time>
      </trkpt>
      <trkpt lat="42.23431" lon="8.55083">
        <ele>227.969727</ele>
        <time>2014-06-26T09:22:15Z</time>
      </trkpt>
      <trkpt lat="42.23431" lon="8.55081">
        <ele>227.489136</ele>
        <time>2014-06-26T09:22:17Z</time>
      </trkpt>
      <trkpt lat="42.23419" lon="8.55079">
        <ele>226.047119</ele>
        <time>2014-06-26T09:22:30Z</time>
      </trkpt>
      <trkpt lat="42.23415" lon="8.55087">
        <ele>222.682495</ele>
        <time>2014-06-26T09:22:39Z</time>
      </trkpt>
      <trkpt lat="42.23413" lon="8.5509">
        <ele>222.682495</ele>
        <time>2014-06-26T09:22:44Z</time>
      </trkpt>
      <trkpt lat="42.23412" lon="8.55092">
        <ele>221.721191</ele>
        <time>2014-06-26T09:23:02Z</time>
      </trkpt>
      <trkpt lat="42.23402" lon="8.55095">
        <ele>218.356567</ele>
        <time>2014-06-26T09:23:16Z</time>
      </trkpt>
      <trkpt lat="42.23396" lon="8.55096">
        <ele>215.472656</ele>
        <time>2014-06-26T09:23:25Z</time>
      </trkpt>
      <trkpt lat="42.2339" lon="8.55102">
        <ele>213.550049</ele>
        <time>2014-06-26T09:23:39Z</time>
      </trkpt>
      <trkpt lat="42.23386" lon="8.55104">
        <ele>212.108032</ele>
        <time>2014-06-26T09:23:53Z</time>
      </trkpt>
      <trkpt lat="42.23382" lon="8.55107">
        <ele>210.666016</ele>
        <time>2014-06-26T09:24:07Z</time>
      </trkpt>
      <trkpt lat="42.23381" lon="8.55108">
        <ele>209.224121</ele>
        <time>2014-06-26T09:24:10Z</time>
      </trkpt>
      <trkpt lat="42.23375" lon="8.55108">
        <ele>206.820679</ele>
        <time>2014-06-26T09:24:26Z</time>
      </trkpt>
      <trkpt lat="42.2337" lon="8.55111">
        <ele>204.898071</ele>
        <time>2014-06-26T09:24:39Z</time>
      </trkpt>
      <trkpt lat="42.23368" lon="8.55114">
        <ele>203.93689</ele>
        <time>2014-06-26T09:24:54Z</time>
      </trkpt>
      <trkpt lat="42.23362" lon="8.55114">
        <ele>201.533569</ele>
        <time>2014-06-26T09:25:09Z</time>
      </trkpt>
      <trkpt lat="42.2336" lon="8.55114">
        <ele>200.091675</ele>
        <time>2014-06-26T09:25:12Z</time>
      </trkpt>
      <trkpt lat="42.23356" lon="8.55119">
        <ele>197.20752</ele>
        <time>2014-06-26T09:25:26Z</time>
      </trkpt>
      <trkpt lat="42.23354" lon="8.55122">
        <ele>195.284912</ele>
        <time>2014-06-26T09:25:41Z</time>
      </trkpt>
      <trkpt lat="42.23351" lon="8.55129">
        <ele>192.401123</ele>
        <time>2014-06-26T09:25:56Z</time>
      </trkpt>
      <trkpt lat="42.23347" lon="8.55132">
        <ele>190.478394</ele>
        <time>2014-06-26T09:26:07Z</time>
      </trkpt>
      <trkpt lat="42.23342" lon="8.55133">
        <ele>186.633179</ele>
        <time>2014-06-26T09:26:19Z</time>
      </trkpt>
      <trkpt lat="42.23338" lon="8.55136">
        <ele>184.710571</ele>
        <time>2014-06-26T09:26:32Z</time>
      </trkpt>
      <trkpt lat="42.23335" lon="8.55139">
        <ele>182.787842</ele>
        <time>2014-06-26T09:26:43Z</time>
      </trkpt>
      <trkpt lat="42.23331" lon="8.55142">
        <ele>181.345825</ele>
        <time>2014-06-26T09:26:56Z</time>
      </trkpt>
      <trkpt lat="42.23328" lon="8.55142">
        <ele>179.423218</ele>
        <time>2014-06-26T09:27:09Z</time>
      </trkpt>
      <trkpt lat="42.23327" lon="8.55147">
        <ele>177.50061</ele>
        <time>2014-06-26T09:27:22Z</time>
      </trkpt>
      <trkpt lat="42.23326" lon="8.55151">
        <ele>176.539307</ele>
        <time>2014-06-26T09:27:33Z</time>
      </trkpt>
      <trkpt lat="42.23326" lon="8.55155">
        <ele>175.09729</ele>
        <time>2014-06-26T09:27:36Z</time>
      </trkpt>
      <trkpt lat="42.23323" lon="8.55168">
        <ele>173.655273</ele>
        <time>2014-06-26T09:27:52Z</time>
      </trkpt>
      <trkpt lat="42.23323" lon="8.5517">
        <ele>172.69397</ele>
        <time>2014-06-26T09:27:54Z</time>
      </trkpt>
      <trkpt lat="42.23322" lon="8.55175">
        <ele>172.213257</ele>
        <time>2014-06-26T09:28:09Z</time>
      </trkpt>
      <trkpt lat="42.23317" lon="8.55182">
        <ele>169.329468</ele>
        <time>2014-06-26T09:28:24Z</time>
      </trkpt>
      <trkpt lat="42.23312" lon="8.55184">
        <ele>166.926025</ele>
        <time>2014-06-26T09:28:39Z</time>
      </trkpt>
      <trkpt lat="42.23312" lon="8.55184">
        <ele>166.445313</ele>
        <time>2014-06-26T09:29:16Z</time>
      </trkpt>
      <trkpt lat="42.23312" lon="8.55183">
        <ele>166.926025</ele>
        <time>2014-06-26T09:31:06Z</time>
      </trkpt>
      <trkpt lat="42.23312" lon="8.55185">
        <ele>168.368042</ele>
        <time>2014-06-26T09:31:33Z</time>
      </trkpt>
      <trkpt lat="42.23313" lon="8.55185">
        <ele>169.810059</ele>
        <time>2014-06-26T09:31:44Z</time>
      </trkpt>
      <trkpt lat="42.2331" lon="8.55188">
        <ele>169.329468</ele>
        <time>2014-06-26T09:32:19Z</time>
      </trkpt>
      <trkpt lat="42.23302" lon="8.55187">
        <ele>168.848755</ele>
        <time>2014-06-26T09:32:34Z</time>
      </trkpt>
      <trkpt lat="42.23297" lon="8.55191">
        <ele>165.484131</ele>
        <time>2014-06-26T09:32:41Z</time>
      </trkpt>
      <trkpt lat="42.23284" lon="8.55192">
        <ele>162.600098</ele>
        <time>2014-06-26T09:32:58Z</time>
      </trkpt>
      <trkpt lat="42.23274" lon="8.55196">
        <ele>161.158203</ele>
        <time>2014-06-26T09:33:10Z</time>
      </trkpt>
      <trkpt lat="42.23272" lon="8.552">
        <ele>160.67749</ele>
        <time>2014-06-26T09:33:14Z</time>
      </trkpt>
      <trkpt lat="42.23266" lon="8.55206">
        <ele>158.754761</ele>
        <time>2014-06-26T09:33:27Z</time>
      </trkpt>
      <trkpt lat="42.23249" lon="8.55212">
        <ele>157.312866</ele>
        <time>2014-06-26T09:33:44Z</time>
      </trkpt>
      <trkpt lat="42.23245" lon="8.55214">
        <ele>156.832153</ele>
        <time>2014-06-26T09:33:48Z</time>
      </trkpt>
      <trkpt lat="42.23239" lon="8.55219">
        <ele>155.870972</ele>
        <time>2014-06-26T09:33:55Z</time>
      </trkpt>
      <trkpt lat="42.23235" lon="8.55219">
        <ele>155.390259</ele>
        <time>2014-06-26T09:33:59Z</time>
      </trkpt>
      <trkpt lat="42.23214" lon="8.5521">
        <ele>153.467651</ele>
        <time>2014-06-26T09:34:20Z</time>
      </trkpt>
      <trkpt lat="42.23206" lon="8.55206">
        <ele>152.506348</ele>
        <time>2014-06-26T09:34:31Z</time>
      </trkpt>
      <trkpt lat="42.23198" lon="8.55203">
        <ele>151.064209</ele>
        <time>2014-06-26T09:34:40Z</time>
      </trkpt>
      <trkpt lat="42.23192" lon="8.55194">
        <ele>149.622314</ele>
        <time>2014-06-26T09:34:52Z</time>
      </trkpt>
      <trkpt lat="42.23177" lon="8.55194">
        <ele>145.7771</ele>
        <time>2014-06-26T09:35:07Z</time>
      </trkpt>
      <trkpt lat="42.2317" lon="8.55189">
        <ele>143.85437</ele>
        <time>2014-06-26T09:35:15Z</time>
      </trkpt>
      <trkpt lat="42.23166" lon="8.55188">
        <ele>143.373657</ele>
        <time>2014-06-26T09:35:19Z</time>
      </trkpt>
      <trkpt lat="42.23146" lon="8.55188">
        <ele>140.009155</ele>
        <time>2014-06-26T09:35:37Z</time>
      </trkpt>
      <trkpt lat="42.23145" lon="8.55188">
        <ele>140.009155</ele>
        <time>2014-06-26T09:35:38Z</time>
      </trkpt>
      <trkpt lat="42.23136" lon="8.55196">
        <ele>138.567261</ele>
        <time>2014-06-26T09:35:55Z</time>
      </trkpt>
      <trkpt lat="42.23134" lon="8.552">
        <ele>137.125244</ele>
        <time>2014-06-26T09:36:01Z</time>
      </trkpt>
      <trkpt lat="42.23127" lon="8.55206">
        <ele>134.721924</ele>
        <time>2014-06-26T09:36:13Z</time>
      </trkpt>
      <trkpt lat="42.23112" lon="8.55207">
        <ele>132.318604</ele>
        <time>2014-06-26T09:36:31Z</time>
      </trkpt>
      <trkpt lat="42.23105" lon="8.55213">
        <ele>128.473389</ele>
        <time>2014-06-26T09:36:43Z</time>
      </trkpt>
      <trkpt lat="42.23101" lon="8.55221">
        <ele>126.069946</ele>
        <time>2014-06-26T09:37:00Z</time>
      </trkpt>
      <trkpt lat="42.23096" lon="8.55223">
        <ele>124.628052</ele>
        <time>2014-06-26T09:37:15Z</time>
      </trkpt>
      <trkpt lat="42.23091" lon="8.55232">
        <ele>121.744141</ele>
        <time>2014-06-26T09:37:30Z</time>
      </trkpt>
      <trkpt lat="42.23084" lon="8.55238">
        <ele>118.379395</ele>
        <time>2014-06-26T09:37:43Z</time>
      </trkpt>
      <trkpt lat="42.23081" lon="8.55244">
        <ele>116.9375</ele>
        <time>2014-06-26T09:37:50Z</time>
      </trkpt>
      <trkpt lat="42.23078" lon="8.55255">
        <ele>115.014893</ele>
        <time>2014-06-26T09:38:05Z</time>
      </trkpt>
      <trkpt lat="42.23073" lon="8.55259">
        <ele>112.130981</ele>
        <time>2014-06-26T09:38:15Z</time>
      </trkpt>
      <trkpt lat="42.23066" lon="8.55269">
        <ele>109.727661</ele>
        <time>2014-06-26T09:38:28Z</time>
      </trkpt>
      <trkpt lat="42.23058" lon="8.55276">
        <ele>107.805054</ele>
        <time>2014-06-26T09:38:43Z</time>
      </trkpt>
      <trkpt lat="42.23053" lon="8.55283">
        <ele>107.324341</ele>
        <time>2014-06-26T09:38:55Z</time>
      </trkpt>
      <trkpt lat="42.23056" lon="8.55293">
        <ele>104.921021</ele>
        <time>2014-06-26T09:39:09Z</time>
      </trkpt>
      <trkpt lat="42.23055" lon="8.55298">
        <ele>103.959717</ele>
        <time>2014-06-26T09:39:14Z</time>
      </trkpt>
      <trkpt lat="42.23052" lon="8.55316">
        <ele>102.037109</ele>
        <time>2014-06-26T09:39:30Z</time>
      </trkpt>
      <trkpt lat="42.23053" lon="8.55318">
        <ele>102.037109</ele>
        <time>2014-06-26T09:39:32Z</time>
      </trkpt>
      <trkpt lat="42.23058" lon="8.55339">
        <ele>99.633789</ele>
        <time>2014-06-26T09:39:49Z</time>
      </trkpt>
      <trkpt lat="42.23057" lon="8.55356">
        <ele>95.788452</ele>
        <time>2014-06-26T09:40:03Z</time>
      </trkpt>
      <trkpt lat="42.23056" lon="8.55372">
        <ele>94.346558</ele>
        <time>2014-06-26T09:40:16Z</time>
      </trkpt>
      <trkpt lat="42.23062" lon="8.55388">
        <ele>91.943237</ele>
        <time>2014-06-26T09:40:32Z</time>
      </trkpt>
      <trkpt lat="42.2307" lon="8.55402">
        <ele>90.02063</ele>
        <time>2014-06-26T09:40:49Z</time>
      </trkpt>
      <trkpt lat="42.23077" lon="8.5541">
        <ele>87.136597</ele>
        <time>2014-06-26T09:41:00Z</time>
      </trkpt>
      <trkpt lat="42.23078" lon="8.5541">
        <ele>86.656006</ele>
        <time>2014-06-26T09:41:01Z</time>
      </trkpt>
      <trkpt lat="42.23087" lon="8.55416">
        <ele>85.213989</ele>
        <time>2014-06-26T09:41:11Z</time>
      </trkpt>
      <trkpt lat="42.23093" lon="8.55418">
        <ele>84.733398</ele>
        <time>2014-06-26T09:41:28Z</time>
      </trkpt>
      <trkpt lat="42.23101" lon="8.55424">
        <ele>84.733398</ele>
        <time>2014-06-26T09:41:40Z</time>
      </trkpt>
      <trkpt lat="42.23118" lon="8.55444">
        <ele>84.733398</ele>
        <time>2014-06-26T09:42:01Z</time>
      </trkpt>
      <trkpt lat="42.23137" lon="8.5546">
        <ele>82.810791</ele>
        <time>2014-06-26T09:42:20Z</time>
      </trkpt>
      <trkpt lat="42.23146" lon="8.55474">
        <ele>79.926636</ele>
        <time>2014-06-26T09:42:31Z</time>
      </trkpt>
      <trkpt lat="42.23159" lon="8.55486">
        <ele>76.081421</ele>
        <time>2014-06-26T09:42:44Z</time>
      </trkpt>
      <trkpt lat="42.23174" lon="8.55488">
        <ele>74.158813</ele>
        <time>2014-06-26T09:42:59Z</time>
      </trkpt>
      <trkpt lat="42.23183" lon="8.55485">
        <ele>71.755493</ele>
        <time>2014-06-26T09:43:12Z</time>
      </trkpt>
      <trkpt lat="42.23189" lon="8.55476">
        <ele>71.274902</ele>
        <time>2014-06-26T09:43:21Z</time>
      </trkpt>
      <trkpt lat="42.23191" lon="8.55476">
        <ele>70.794189</ele>
        <time>2014-06-26T09:43:23Z</time>
      </trkpt>
      <trkpt lat="42.23193" lon="8.55479">
        <ele>70.794189</ele>
        <time>2014-06-26T09:43:25Z</time>
      </trkpt>
      <trkpt lat="42.23198" lon="8.55482">
        <ele>70.313477</ele>
        <time>2014-06-26T09:43:30Z</time>
      </trkpt>
      <trkpt lat="42.23201" lon="8.55483">
        <ele>70.313477</ele>
        <time>2014-06-26T09:43:33Z</time>
      </trkpt>
      <trkpt lat="42.23205" lon="8.55484">
        <ele>71.755493</ele>
        <time>2014-06-26T09:43:37Z</time>
      </trkpt>
      <trkpt lat="42.2321" lon="8.55492">
        <ele>72.236206</ele>
        <time>2014-06-26T09:43:43Z</time>
      </trkpt>
      <trkpt lat="42.23222" lon="8.55525">
        <ele>72.236206</ele>
        <time>2014-06-26T09:44:03Z</time>
      </trkpt>
      <trkpt lat="42.23236" lon="8.55547">
        <ele>73.678223</ele>
        <time>2014-06-26T09:44:22Z</time>
      </trkpt>
      <trkpt lat="42.2325" lon="8.55579">
        <ele>72.716919</ele>
        <time>2014-06-26T09:44:43Z</time>
      </trkpt>
      <trkpt lat="42.2326" lon="8.5561">
        <ele>72.716919</ele>
        <time>2014-06-26T09:45:02Z</time>
      </trkpt>
      <trkpt lat="42.23272" lon="8.5564">
        <ele>75.120239</ele>
        <time>2014-06-26T09:45:23Z</time>
      </trkpt>
      <trkpt lat="42.23277" lon="8.55647">
        <ele>76.081421</ele>
        <time>2014-06-26T09:45:29Z</time>
      </trkpt>
      <trkpt lat="42.23286" lon="8.55669">
        <ele>77.042847</ele>
        <time>2014-06-26T09:45:46Z</time>
      </trkpt>
      <trkpt lat="42.23296" lon="8.5569">
        <ele>77.523438</ele>
        <time>2014-06-26T09:46:05Z</time>
      </trkpt>
      <trkpt lat="42.23305" lon="8.55711">
        <ele>79.446045</ele>
        <time>2014-06-26T09:46:24Z</time>
      </trkpt>
      <trkpt lat="42.23318" lon="8.55734">
        <ele>81.368774</ele>
        <time>2014-06-26T09:46:42Z</time>
      </trkpt>
      <trkpt lat="42.23323" lon="8.5574">
        <ele>82.330078</ele>
        <time>2014-06-26T09:46:48Z</time>
      </trkpt>
      <trkpt lat="42.23325" lon="8.55745">
        <ele>82.810791</ele>
        <time>2014-06-26T09:46:52Z</time>
      </trkpt>
      <trkpt lat="42.2333" lon="8.55753">
        <ele>83.291382</ele>
        <time>2014-06-26T09:46:59Z</time>
      </trkpt>
      <trkpt lat="42.23333" lon="8.55758">
        <ele>82.810791</ele>
        <time>2014-06-26T09:47:03Z</time>
      </trkpt>
      <trkpt lat="42.23344" lon="8.55776">
        <ele>85.69458</ele>
        <time>2014-06-26T09:47:19Z</time>
      </trkpt>
      <trkpt lat="42.23351" lon="8.55801">
        <ele>86.175293</ele>
        <time>2014-06-26T09:47:37Z</time>
      </trkpt>
      <trkpt lat="42.23353" lon="8.55822">
        <ele>89.059326</ele>
        <time>2014-06-26T09:47:53Z</time>
      </trkpt>
      <trkpt lat="42.23349" lon="8.55843">
        <ele>89.539917</ele>
        <time>2014-06-26T09:48:09Z</time>
      </trkpt>
      <trkpt lat="42.23348" lon="8.55862">
        <ele>91.943237</ele>
        <time>2014-06-26T09:48:25Z</time>
      </trkpt>
      <trkpt lat="42.23348" lon="8.55866">
        <ele>92.904541</ele>
        <time>2014-06-26T09:48:28Z</time>
      </trkpt>
      <trkpt lat="42.23347" lon="8.55868">
        <ele>93.385132</ele>
        <time>2014-06-26T09:48:32Z</time>
      </trkpt>
      <trkpt lat="42.23342" lon="8.55892">
        <ele>96.269287</ele>
        <time>2014-06-26T09:48:52Z</time>
      </trkpt>
      <trkpt lat="42.2334" lon="8.559">
        <ele>97.230469</ele>
        <time>2014-06-26T09:49:06Z</time>
      </trkpt>
      <trkpt lat="42.23341" lon="8.559">
        <ele>98.191895</ele>
        <time>2014-06-26T09:49:39Z</time>
      </trkpt>
      <trkpt lat="42.23342" lon="8.55908">
        <ele>98.672485</ele>
        <time>2014-06-26T09:49:51Z</time>
      </trkpt>
      <trkpt lat="42.2334" lon="8.55921">
        <ele>101.556396</ele>
        <time>2014-06-26T09:50:03Z</time>
      </trkpt>
      <trkpt lat="42.23342" lon="8.5593">
        <ele>102.5177</ele>
        <time>2014-06-26T09:50:14Z</time>
      </trkpt>
      <trkpt lat="42.23349" lon="8.55953">
        <ele>103.959717</ele>
        <time>2014-06-26T09:50:32Z</time>
      </trkpt>
      <trkpt lat="42.23354" lon="8.55967">
        <ele>106.843628</ele>
        <time>2014-06-26T09:50:43Z</time>
      </trkpt>
      <trkpt lat="42.23359" lon="8.55992">
        <ele>107.805054</ele>
        <time>2014-06-26T09:51:01Z</time>
      </trkpt>
      <trkpt lat="42.23361" lon="8.56003">
        <ele>107.805054</ele>
        <time>2014-06-26T09:51:14Z</time>
      </trkpt>
      <trkpt lat="42.23364" lon="8.56016">
        <ele>105.882446</ele>
        <time>2014-06-26T09:51:27Z</time>
      </trkpt>
      <trkpt lat="42.23368" lon="8.56043">
        <ele>102.5177</ele>
        <time>2014-06-26T09:51:45Z</time>
      </trkpt>
      <trkpt lat="42.23378" lon="8.56081">
        <ele>102.5177</ele>
        <time>2014-06-26T09:52:08Z</time>
      </trkpt>
      <trkpt lat="42.23381" lon="8.56095">
        <ele>103.479004</ele>
        <time>2014-06-26T09:52:16Z</time>
      </trkpt>
      <trkpt lat="42.23383" lon="8.56129">
        <ele>102.037109</ele>
        <time>2014-06-26T09:52:36Z</time>
      </trkpt>
      <trkpt lat="42.23383" lon="8.56158">
        <ele>102.037109</ele>
        <time>2014-06-26T09:52:53Z</time>
      </trkpt>
      <trkpt lat="42.23389" lon="8.56184">
        <ele>102.5177</ele>
        <time>2014-06-26T09:53:10Z</time>
      </trkpt>
      <trkpt lat="42.23403" lon="8.56215">
        <ele>102.5177</ele>
        <time>2014-06-26T09:53:30Z</time>
      </trkpt>
      <trkpt lat="42.23421" lon="8.56249">
        <ele>102.5177</ele>
        <time>2014-06-26T09:53:53Z</time>
      </trkpt>
      <trkpt lat="42.23429" lon="8.56278">
        <ele>102.037109</ele>
        <time>2014-06-26T09:54:11Z</time>
      </trkpt>
      <trkpt lat="42.23436" lon="8.56301">
        <ele>102.998291</ele>
        <time>2014-06-26T09:54:30Z</time>
      </trkpt>
      <trkpt lat="42.23439" lon="8.56293">
        <ele>105.401733</ele>
        <time>2014-06-26T09:54:40Z</time>
      </trkpt>
      <trkpt lat="42.23443" lon="8.56292">
        <ele>107.324341</ele>
        <time>2014-06-26T09:54:46Z</time>
      </trkpt>
      <trkpt lat="42.23449" lon="8.56304">
        <ele>111.169556</ele>
        <time>2014-06-26T09:55:01Z</time>
      </trkpt>
      <trkpt lat="42.23456" lon="8.56318">
        <ele>112.611572</ele>
        <time>2014-06-26T09:55:17Z</time>
      </trkpt>
      <trkpt lat="42.23463" lon="8.56336">
        <ele>113.572998</ele>
        <time>2014-06-26T09:55:34Z</time>
      </trkpt>
      <trkpt lat="42.23469" lon="8.56348">
        <ele>116.9375</ele>
        <time>2014-06-26T09:55:45Z</time>
      </trkpt>
      <trkpt lat="42.23472" lon="8.56353">
        <ele>117.898804</ele>
        <time>2014-06-26T09:55:50Z</time>
      </trkpt>
      <trkpt lat="42.23474" lon="8.56359">
        <ele>118.379395</ele>
        <time>2014-06-26T09:55:55Z</time>
      </trkpt>
      <trkpt lat="42.23475" lon="8.56363">
        <ele>118.379395</ele>
        <time>2014-06-26T09:55:59Z</time>
      </trkpt>
      <trkpt lat="42.23483" lon="8.56392">
        <ele>120.302124</ele>
        <time>2014-06-26T09:56:19Z</time>
      </trkpt>
      <trkpt lat="42.23483" lon="8.56393">
        <ele>121.26355</ele>
        <time>2014-06-26T09:56:20Z</time>
      </trkpt>
      <trkpt lat="42.23498" lon="8.56404">
        <ele>123.186157</ele>
        <time>2014-06-26T09:56:39Z</time>
      </trkpt>
      <trkpt lat="42.23508" lon="8.56408">
        <ele>126.550659</ele>
        <time>2014-06-26T09:56:52Z</time>
      </trkpt>
      <trkpt lat="42.23519" lon="8.56418">
        <ele>129.434692</ele>
        <time>2014-06-26T09:57:08Z</time>
      </trkpt>
      <trkpt lat="42.23529" lon="8.56431">
        <ele>132.318604</ele>
        <time>2014-06-26T09:57:24Z</time>
      </trkpt>
      <trkpt lat="42.23533" lon="8.56438">
        <ele>132.799316</ele>
        <time>2014-06-26T09:57:31Z</time>
      </trkpt>
      <trkpt lat="42.23546" lon="8.56444">
        <ele>136.644653</ele>
        <time>2014-06-26T09:57:47Z</time>
      </trkpt>
      <trkpt lat="42.23549" lon="8.56447">
        <ele>136.644653</ele>
        <time>2014-06-26T09:57:53Z</time>
      </trkpt>
      <trkpt lat="42.2355" lon="8.56449">
        <ele>137.125244</ele>
        <time>2014-06-26T09:57:55Z</time>
      </trkpt>
      <trkpt lat="42.23552" lon="8.56453">
        <ele>137.125244</ele>
        <time>2014-06-26T09:57:58Z</time>
      </trkpt>
      <trkpt lat="42.23569" lon="8.56471">
        <ele>138.567261</ele>
        <time>2014-06-26T09:58:19Z</time>
      </trkpt>
      <trkpt lat="42.23577" lon="8.56484">
        <ele>141.45105</ele>
        <time>2014-06-26T09:58:33Z</time>
      </trkpt>
      <trkpt lat="42.23578" lon="8.56486">
        <ele>141.931763</ele>
        <time>2014-06-26T09:58:35Z</time>
      </trkpt>
      <trkpt lat="42.23582" lon="8.56492">
        <ele>143.373657</ele>
        <time>2014-06-26T09:58:41Z</time>
      </trkpt>
      <trkpt lat="42.2359" lon="8.56503">
        <ele>146.738403</ele>
        <time>2014-06-26T09:58:54Z</time>
      </trkpt>
      <trkpt lat="42.23593" lon="8.56506">
        <ele>147.218994</ele>
        <time>2014-06-26T09:58:59Z</time>
      </trkpt>
      <trkpt lat="42.23599" lon="8.56519">
        <ele>149.622314</ele>
        <time>2014-06-26T09:59:14Z</time>
      </trkpt>
      <trkpt lat="42.236" lon="8.56521">
        <ele>150.583618</ele>
        <time>2014-06-26T09:59:16Z</time>
      </trkpt>
      <trkpt lat="42.23608" lon="8.56534">
        <ele>152.986938</ele>
        <time>2014-06-26T09:59:33Z</time>
      </trkpt>
      <trkpt lat="42.23613" lon="8.56536">
        <ele>155.870972</ele>
        <time>2014-06-26T09:59:40Z</time>
      </trkpt>
      <trkpt lat="42.23618" lon="8.56544">
        <ele>157.793579</ele>
        <time>2014-06-26T09:59:54Z</time>
      </trkpt>
      <trkpt lat="42.23621" lon="8.56547">
        <ele>157.793579</ele>
        <time>2014-06-26T10:00:00Z</time>
      </trkpt>
      <trkpt lat="42.23623" lon="8.56547">
        <ele>158.27417</ele>
        <time>2014-06-26T10:00:02Z</time>
      </trkpt>
      <trkpt lat="42.23631" lon="8.56548">
        <ele>160.67749</ele>
        <time>2014-06-26T10:00:13Z</time>
      </trkpt>
      <trkpt lat="42.23631" lon="8.56555">
        <ele>160.67749</ele>
        <time>2014-06-26T10:00:18Z</time>
      </trkpt>
      <trkpt lat="42.23635" lon="8.56568">
        <ele>162.119507</ele>
        <time>2014-06-26T10:00:29Z</time>
      </trkpt>
      <trkpt lat="42.2364" lon="8.56585">
        <ele>163.080811</ele>
        <time>2014-06-26T10:00:43Z</time>
      </trkpt>
      <trkpt lat="42.23643" lon="8.56607">
        <ele>165.484131</ele>
        <time>2014-06-26T10:01:00Z</time>
      </trkpt>
      <trkpt lat="42.23645" lon="8.56617">
        <ele>165.964722</ele>
        <time>2014-06-26T10:01:09Z</time>
      </trkpt>
      <trkpt lat="42.23647" lon="8.5662">
        <ele>165.484131</ele>
        <time>2014-06-26T10:01:12Z</time>
      </trkpt>
      <trkpt lat="42.23649" lon="8.56626">
        <ele>165.964722</ele>
        <time>2014-06-26T10:01:18Z</time>
      </trkpt>
      <trkpt lat="42.23652" lon="8.56635">
        <ele>168.848755</ele>
        <time>2014-06-26T10:01:26Z</time>
      </trkpt>
      <trkpt lat="42.23654" lon="8.5664">
        <ele>168.848755</ele>
        <time>2014-06-26T10:01:31Z</time>
      </trkpt>
      <trkpt lat="42.23656" lon="8.56649">
        <ele>170.290649</ele>
        <time>2014-06-26T10:01:39Z</time>
      </trkpt>
      <trkpt lat="42.23657" lon="8.5667">
        <ele>172.213257</ele>
        <time>2014-06-26T10:01:56Z</time>
      </trkpt>
      <trkpt lat="42.23659" lon="8.56685">
        <ele>173.174683</ele>
        <time>2014-06-26T10:02:12Z</time>
      </trkpt>
      <trkpt lat="42.23659" lon="8.56703">
        <ele>175.577881</ele>
        <time>2014-06-26T10:02:28Z</time>
      </trkpt>
      <trkpt lat="42.23657" lon="8.5672">
        <ele>177.50061</ele>
        <time>2014-06-26T10:02:44Z</time>
      </trkpt>
      <trkpt lat="42.23655" lon="8.56735">
        <ele>178.461914</ele>
        <time>2014-06-26T10:02:56Z</time>
      </trkpt>
      <trkpt lat="42.23654" lon="8.56738">
        <ele>178.461914</ele>
        <time>2014-06-26T10:02:59Z</time>
      </trkpt>
      <trkpt lat="42.23653" lon="8.56749">
        <ele>181.345825</ele>
        <time>2014-06-26T10:03:09Z</time>
      </trkpt>
      <trkpt lat="42.23647" lon="8.56763">
        <ele>182.787842</ele>
        <time>2014-06-26T10:03:24Z</time>
      </trkpt>
      <trkpt lat="42.23644" lon="8.56777">
        <ele>186.152466</ele>
        <time>2014-06-26T10:03:37Z</time>
      </trkpt>
      <trkpt lat="42.23643" lon="8.56781">
        <ele>187.11377</ele>
        <time>2014-06-26T10:03:41Z</time>
      </trkpt>
      <trkpt lat="42.23639" lon="8.56793">
        <ele>188.075073</ele>
        <time>2014-06-26T10:03:55Z</time>
      </trkpt>
      <trkpt lat="42.23636" lon="8.56805">
        <ele>189.997681</ele>
        <time>2014-06-26T10:04:09Z</time>
      </trkpt>
      <trkpt lat="42.23637" lon="8.5682">
        <ele>192.401123</ele>
        <time>2014-06-26T10:04:23Z</time>
      </trkpt>
      <trkpt lat="42.23639" lon="8.56835">
        <ele>194.32373</ele>
        <time>2014-06-26T10:04:39Z</time>
      </trkpt>
      <trkpt lat="42.23647" lon="8.5685">
        <ele>196.726929</ele>
        <time>2014-06-26T10:04:53Z</time>
      </trkpt>
      <trkpt lat="42.23664" lon="8.56877">
        <ele>197.20752</ele>
        <time>2014-06-26T10:05:15Z</time>
      </trkpt>
      <trkpt lat="42.23681" lon="8.569">
        <ele>198.649536</ele>
        <time>2014-06-26T10:05:36Z</time>
      </trkpt>
      <trkpt lat="42.23691" lon="8.56927">
        <ele>200.572266</ele>
        <time>2014-06-26T10:05:55Z</time>
      </trkpt>
      <trkpt lat="42.23702" lon="8.56955">
        <ele>201.052856</ele>
        <time>2014-06-26T10:06:13Z</time>
      </trkpt>
      <trkpt lat="42.23711" lon="8.5699">
        <ele>201.533569</ele>
        <time>2014-06-26T10:06:35Z</time>
      </trkpt>
      <trkpt lat="42.23711" lon="8.56994">
        <ele>202.014282</ele>
        <time>2014-06-26T10:06:37Z</time>
      </trkpt>
      <trkpt lat="42.23712" lon="8.57005">
        <ele>201.052856</ele>
        <time>2014-06-26T10:06:44Z</time>
      </trkpt>
      <trkpt lat="42.23703" lon="8.57034">
        <ele>202.014282</ele>
        <time>2014-06-26T10:07:02Z</time>
      </trkpt>
      <trkpt lat="42.23689" lon="8.57076">
        <ele>201.533569</ele>
        <time>2014-06-26T10:07:27Z</time>
      </trkpt>
      <trkpt lat="42.23683" lon="8.57113">
        <ele>202.975464</ele>
        <time>2014-06-26T10:07:50Z</time>
      </trkpt>
      <trkpt lat="42.2368" lon="8.57131">
        <ele>206.340088</ele>
        <time>2014-06-26T10:08:07Z</time>
      </trkpt>
      <trkpt lat="42.23675" lon="8.57154">
        <ele>206.820679</ele>
        <time>2014-06-26T10:08:23Z</time>
      </trkpt>
      <trkpt lat="42.23672" lon="8.57179">
        <ele>206.820679</ele>
        <time>2014-06-26T10:08:40Z</time>
      </trkpt>
      <trkpt lat="42.23671" lon="8.57189">
        <ele>210.185425</ele>
        <time>2014-06-26T10:08:49Z</time>
      </trkpt>
      <trkpt lat="42.23667" lon="8.5721">
        <ele>211.146729</ele>
        <time>2014-06-26T10:09:04Z</time>
      </trkpt>
      <trkpt lat="42.23661" lon="8.57245">
        <ele>212.108032</ele>
        <time>2014-06-26T10:09:24Z</time>
      </trkpt>
      <trkpt lat="42.23651" lon="8.57275">
        <ele>213.550049</ele>
        <time>2014-06-26T10:09:44Z</time>
      </trkpt>
      <trkpt lat="42.23644" lon="8.57297">
        <ele>216.43396</ele>
        <time>2014-06-26T10:10:02Z</time>
      </trkpt>
      <trkpt lat="42.23636" lon="8.5731">
        <ele>217.395386</ele>
        <time>2014-06-26T10:10:14Z</time>
      </trkpt>
      <trkpt lat="42.23632" lon="8.57326">
        <ele>218.356567</ele>
        <time>2014-06-26T10:10:25Z</time>
      </trkpt>
      <trkpt lat="42.23633" lon="8.57328">
        <ele>218.83728</ele>
        <time>2014-06-26T10:10:27Z</time>
      </trkpt>
      <trkpt lat="42.23633" lon="8.57345">
        <ele>222.201782</ele>
        <time>2014-06-26T10:10:42Z</time>
      </trkpt>
      <trkpt lat="42.23634" lon="8.57361">
        <ele>224.124512</ele>
        <time>2014-06-26T10:10:55Z</time>
      </trkpt>
      <trkpt lat="42.23637" lon="8.57371">
        <ele>227.489136</ele>
        <time>2014-06-26T10:11:09Z</time>
      </trkpt>
      <trkpt lat="42.23638" lon="8.57384">
        <ele>228.450439</ele>
        <time>2014-06-26T10:11:21Z</time>
      </trkpt>
      <trkpt lat="42.23629" lon="8.57395">
        <ele>227.489136</ele>
        <time>2014-06-26T10:11:34Z</time>
      </trkpt>
      <trkpt lat="42.23628" lon="8.57396">
        <ele>227.008545</ele>
        <time>2014-06-26T10:11:35Z</time>
      </trkpt>
      <trkpt lat="42.23629" lon="8.57414">
        <ele>226.527832</ele>
        <time>2014-06-26T10:11:51Z</time>
      </trkpt>
      <trkpt lat="42.23627" lon="8.57443">
        <ele>227.969727</ele>
        <time>2014-06-26T10:12:08Z</time>
      </trkpt>
      <trkpt lat="42.2363" lon="8.57463">
        <ele>228.931152</ele>
        <time>2014-06-26T10:12:27Z</time>
      </trkpt>
      <trkpt lat="42.23634" lon="8.57482">
        <ele>230.85376</ele>
        <time>2014-06-26T10:12:43Z</time>
      </trkpt>
      <trkpt lat="42.23643" lon="8.57506">
        <ele>234.218384</ele>
        <time>2014-06-26T10:12:57Z</time>
      </trkpt>
      <trkpt lat="42.23648" lon="8.57542">
        <ele>236.140991</ele>
        <time>2014-06-26T10:13:18Z</time>
      </trkpt>
      <trkpt lat="42.23652" lon="8.57569">
        <ele>237.102295</ele>
        <time>2014-06-26T10:13:36Z</time>
      </trkpt>
      <trkpt lat="42.23657" lon="8.57603">
        <ele>238.544312</ele>
        <time>2014-06-26T10:13:57Z</time>
      </trkpt>
      <trkpt lat="42.23655" lon="8.57619">
        <ele>240.467041</ele>
        <time>2014-06-26T10:14:15Z</time>
      </trkpt>
      <trkpt lat="42.23654" lon="8.57624">
        <ele>241.428223</ele>
        <time>2014-06-26T10:14:21Z</time>
      </trkpt>
      <trkpt lat="42.23655" lon="8.57628">
        <ele>242.870239</ele>
        <time>2014-06-26T10:14:33Z</time>
      </trkpt>
      <trkpt lat="42.23655" lon="8.57628">
        <ele>241.908936</ele>
        <time>2014-06-26T10:14:46Z</time>
      </trkpt>
      <trkpt lat="42.23651" lon="8.57633">
        <ele>242.870239</ele>
        <time>2014-06-26T10:14:52Z</time>
      </trkpt>
      <trkpt lat="42.23647" lon="8.57663">
        <ele>244.312256</ele>
        <time>2014-06-26T10:15:10Z</time>
      </trkpt>
      <trkpt lat="42.23646" lon="8.57672">
        <ele>245.75415</ele>
        <time>2014-06-26T10:15:15Z</time>
      </trkpt>
      <trkpt lat="42.23636" lon="8.57703">
        <ele>248.157593</ele>
        <time>2014-06-26T10:15:35Z</time>
      </trkpt>
      <trkpt lat="42.2363" lon="8.57724">
        <ele>251.041382</ele>
        <time>2014-06-26T10:15:50Z</time>
      </trkpt>
      <trkpt lat="42.23621" lon="8.57738">
        <ele>254.406006</ele>
        <time>2014-06-26T10:16:02Z</time>
      </trkpt>
      <trkpt lat="42.2362" lon="8.57741">
        <ele>255.36731</ele>
        <time>2014-06-26T10:16:04Z</time>
      </trkpt>
      <trkpt lat="42.2362" lon="8.57746">
        <ele>255.848022</ele>
        <time>2014-06-26T10:16:09Z</time>
      </trkpt>
      <trkpt lat="42.23609" lon="8.57765">
        <ele>257.770752</ele>
        <time>2014-06-26T10:16:27Z</time>
      </trkpt>
      <trkpt lat="42.23605" lon="8.57772">
        <ele>258.731934</ele>
        <time>2014-06-26T10:16:44Z</time>
      </trkpt>
      <trkpt lat="42.23605" lon="8.57775">
        <ele>259.212646</ele>
        <time>2014-06-26T10:17:01Z</time>
      </trkpt>
      <trkpt lat="42.23603" lon="8.57782">
        <ele>260.654541</ele>
        <time>2014-06-26T10:17:07Z</time>
      </trkpt>
      <trkpt lat="42.23601" lon="8.57786">
        <ele>261.615967</ele>
        <time>2014-06-26T10:17:11Z</time>
      </trkpt>
      <trkpt lat="42.23599" lon="8.5779">
        <ele>262.096558</ele>
        <time>2014-06-26T10:17:16Z</time>
      </trkpt>
      <trkpt lat="42.23595" lon="8.578">
        <ele>263.538574</ele>
        <time>2014-06-26T10:17:26Z</time>
      </trkpt>
      <trkpt lat="42.2359" lon="8.57805">
        <ele>263.538574</ele>
        <time>2014-06-26T10:17:31Z</time>
      </trkpt>
      <trkpt lat="42.23576" lon="8.57835">
        <ele>263.538574</ele>
        <time>2014-06-26T10:17:51Z</time>
      </trkpt>
      <trkpt lat="42.23575" lon="8.57854">
        <ele>264.019287</ele>
        <time>2014-06-26T10:18:05Z</time>
      </trkpt>
      <trkpt lat="42.23576" lon="8.57879">
        <ele>263.538574</ele>
        <time>2014-06-26T10:18:21Z</time>
      </trkpt>
      <trkpt lat="42.2359" lon="8.57906">
        <ele>265.461304</ele>
        <time>2014-06-26T10:18:42Z</time>
      </trkpt>
      <trkpt lat="42.23596" lon="8.57914">
        <ele>266.903198</ele>
        <time>2014-06-26T10:18:51Z</time>
      </trkpt>
      <trkpt lat="42.23601" lon="8.57929">
        <ele>268.345093</ele>
        <time>2014-06-26T10:19:02Z</time>
      </trkpt>
      <trkpt lat="42.23605" lon="8.57937">
        <ele>269.787109</ele>
        <time>2014-06-26T10:19:08Z</time>
      </trkpt>
      <trkpt lat="42.23605" lon="8.57971">
        <ele>271.709717</ele>
        <time>2014-06-26T10:19:30Z</time>
      </trkpt>
      <trkpt lat="42.236" lon="8.57998">
        <ele>273.632446</ele>
        <time>2014-06-26T10:19:49Z</time>
      </trkpt>
      <trkpt lat="42.23598" lon="8.58024">
        <ele>274.59375</ele>
        <time>2014-06-26T10:20:06Z</time>
      </trkpt>
      <trkpt lat="42.23592" lon="8.58052">
        <ele>277.477661</ele>
        <time>2014-06-26T10:20:25Z</time>
      </trkpt>
      <trkpt lat="42.23587" lon="8.58081">
        <ele>278.438965</ele>
        <time>2014-06-26T10:20:45Z</time>
      </trkpt>
      <trkpt lat="42.23584" lon="8.58113">
        <ele>281.322998</ele>
        <time>2014-06-26T10:21:08Z</time>
      </trkpt>
      <trkpt lat="42.23583" lon="8.58127">
        <ele>283.245605</ele>
        <time>2014-06-26T10:21:21Z</time>
      </trkpt>
      <trkpt lat="42.23583" lon="8.58141">
        <ele>284.206909</ele>
        <time>2014-06-26T10:21:32Z</time>
      </trkpt>
      <trkpt lat="42.23583" lon="8.58153">
        <ele>286.129517</ele>
        <time>2014-06-26T10:21:43Z</time>
      </trkpt>
      <trkpt lat="42.23583" lon="8.58158">
        <ele>287.09082</ele>
        <time>2014-06-26T10:21:48Z</time>
      </trkpt>
      <trkpt lat="42.23583" lon="8.58172">
        <ele>288.052246</ele>
        <time>2014-06-26T10:21:59Z</time>
      </trkpt>
      <trkpt lat="42.23581" lon="8.58195">
        <ele>290.455566</ele>
        <time>2014-06-26T10:22:18Z</time>
      </trkpt>
      <trkpt lat="42.23578" lon="8.58209">
        <ele>292.858765</ele>
        <time>2014-06-26T10:22:32Z</time>
      </trkpt>
      <trkpt lat="42.23579" lon="8.58222">
        <ele>295.261963</ele>
        <time>2014-06-26T10:22:46Z</time>
      </trkpt>
      <trkpt lat="42.23578" lon="8.58235">
        <ele>298.146118</ele>
        <time>2014-06-26T10:23:01Z</time>
      </trkpt>
      <trkpt lat="42.23569" lon="8.58257">
        <ele>300.068726</ele>
        <time>2014-06-26T10:23:19Z</time>
      </trkpt>
      <trkpt lat="42.23554" lon="8.58287">
        <ele>298.146118</ele>
        <time>2014-06-26T10:23:40Z</time>
      </trkpt>
      <trkpt lat="42.23541" lon="8.58321">
        <ele>298.146118</ele>
        <time>2014-06-26T10:24:02Z</time>
      </trkpt>
      <trkpt lat="42.23534" lon="8.58338">
        <ele>298.146118</ele>
        <time>2014-06-26T10:24:15Z</time>
      </trkpt>
      <trkpt lat="42.23533" lon="8.58341">
        <ele>298.146118</ele>
        <time>2014-06-26T10:24:17Z</time>
      </trkpt>
      <trkpt lat="42.23537" lon="8.58367">
        <ele>300.068726</ele>
        <time>2014-06-26T10:24:35Z</time>
      </trkpt>
      <trkpt lat="42.23537" lon="8.5838">
        <ele>299.1073</ele>
        <time>2014-06-26T10:24:55Z</time>
      </trkpt>
      <trkpt lat="42.23537" lon="8.5838">
        <ele>298.626709</ele>
        <time>2014-06-26T10:25:12Z</time>
      </trkpt>
      <trkpt lat="42.23538" lon="8.58381">
        <ele>299.1073</ele>
        <time>2014-06-26T10:27:04Z</time>
      </trkpt>
    </trkseg>
  </trk>
</gpx>